<?xml version="1.0" encoding="UTF-8" standalone="no" ?>
<gpx xmlns="http://www.topografix.com/GPX/1/1" xmlns:xsi="http://www.w3.org/2001/XMLSchema-instance" xsi:schemaLocation="http://www.topografix.com/GPX/1/1 http://www.topografix.com/GPX/1/1/gpx.xsd" version="1.1" creator="VisuGPX - https://www.visugpx.com">
  <metadata>
    <name>Rando Jonquilles</name>
    <desc><![CDATA[Randonnée Mauvezin]]></desc>
  </metadata>
  <trk>
    <name><![CDATA[Rando Jonquilles]]></name>
    <trkseg>
      <trkpt lat="43.72173" lon="0.9774">
        <ele>203.8</ele>
        <time>2015-02-22T08:48:35Z</time>
      </trkpt>
      <trkpt lat="43.72173" lon="0.9774">
        <ele>203.8</ele>
        <time>2015-02-22T08:48:36Z</time>
      </trkpt>
      <trkpt lat="43.72174" lon="0.97739">
        <ele>203.82</ele>
        <time>2015-02-22T08:48:42Z</time>
      </trkpt>
      <trkpt lat="43.7217" lon="0.9774">
        <ele>204.44</ele>
        <time>2015-02-22T08:49:05Z</time>
      </trkpt>
      <trkpt lat="43.7217" lon="0.97739">
        <ele>204.06</ele>
        <time>2015-02-22T08:49:26Z</time>
      </trkpt>
      <trkpt lat="43.72169" lon="0.97733">
        <ele>204.13</ele>
        <time>2015-02-22T08:49:50Z</time>
      </trkpt>
      <trkpt lat="43.7217" lon="0.97717">
        <ele>204.75</ele>
        <time>2015-02-22T08:50:05Z</time>
      </trkpt>
      <trkpt lat="43.72168" lon="0.97699">
        <ele>204.39</ele>
        <time>2015-02-22T08:50:18Z</time>
      </trkpt>
      <trkpt lat="43.72163" lon="0.97696">
        <ele>204.49</ele>
        <time>2015-02-22T08:50:24Z</time>
      </trkpt>
      <trkpt lat="43.72149" lon="0.9769">
        <ele>204.86</ele>
        <time>2015-02-22T08:50:38Z</time>
      </trkpt>
      <trkpt lat="43.72139" lon="0.97685">
        <ele>205.2</ele>
        <time>2015-02-22T08:50:50Z</time>
      </trkpt>
      <trkpt lat="43.72127" lon="0.97668">
        <ele>205.6</ele>
        <time>2015-02-22T08:51:09Z</time>
      </trkpt>
      <trkpt lat="43.72109" lon="0.97659">
        <ele>204.6</ele>
        <time>2015-02-22T08:51:20Z</time>
      </trkpt>
      <trkpt lat="43.72089" lon="0.97645">
        <ele>202.7</ele>
        <time>2015-02-22T08:51:36Z</time>
      </trkpt>
      <trkpt lat="43.72088" lon="0.97644">
        <ele>202.37</ele>
        <time>2015-02-22T08:51:39Z</time>
      </trkpt>
      <trkpt lat="43.72084" lon="0.97641">
        <ele>202.26</ele>
        <time>2015-02-22T08:51:42Z</time>
      </trkpt>
      <trkpt lat="43.72065" lon="0.97628">
        <ele>200.54</ele>
        <time>2015-02-22T08:51:59Z</time>
      </trkpt>
      <trkpt lat="43.72048" lon="0.97618">
        <ele>198.69</ele>
        <time>2015-02-22T08:52:14Z</time>
      </trkpt>
      <trkpt lat="43.72033" lon="0.97608">
        <ele>196.89</ele>
        <time>2015-02-22T08:52:28Z</time>
      </trkpt>
      <trkpt lat="43.72011" lon="0.97598">
        <ele>195.54</ele>
        <time>2015-02-22T08:52:45Z</time>
      </trkpt>
      <trkpt lat="43.71991" lon="0.97586">
        <ele>194.65</ele>
        <time>2015-02-22T08:53:03Z</time>
      </trkpt>
      <trkpt lat="43.71978" lon="0.9758">
        <ele>194.79</ele>
        <time>2015-02-22T08:53:15Z</time>
      </trkpt>
      <trkpt lat="43.71973" lon="0.97579">
        <ele>194.58</ele>
        <time>2015-02-22T08:53:20Z</time>
      </trkpt>
      <trkpt lat="43.71957" lon="0.9757">
        <ele>194.25</ele>
        <time>2015-02-22T08:53:38Z</time>
      </trkpt>
      <trkpt lat="43.71941" lon="0.97562">
        <ele>194.31</ele>
        <time>2015-02-22T08:53:56Z</time>
      </trkpt>
      <trkpt lat="43.71928" lon="0.97556">
        <ele>194.74</ele>
        <time>2015-02-22T08:54:10Z</time>
      </trkpt>
      <trkpt lat="43.71915" lon="0.97549">
        <ele>195.37</ele>
        <time>2015-02-22T08:54:25Z</time>
      </trkpt>
      <trkpt lat="43.71903" lon="0.97544">
        <ele>197.01</ele>
        <time>2015-02-22T08:54:42Z</time>
      </trkpt>
      <trkpt lat="43.71842" lon="0.97531">
        <ele>199.15</ele>
        <time>2015-02-22T08:55:37Z</time>
      </trkpt>
      <trkpt lat="43.7182" lon="0.97528">
        <ele>196.84</ele>
        <time>2015-02-22T08:56:00Z</time>
      </trkpt>
      <trkpt lat="43.71796" lon="0.9752">
        <ele>194.32</ele>
        <time>2015-02-22T08:56:25Z</time>
      </trkpt>
      <trkpt lat="43.71779" lon="0.97513">
        <ele>192.24</ele>
        <time>2015-02-22T08:56:41Z</time>
      </trkpt>
      <trkpt lat="43.71759" lon="0.97506">
        <ele>189.67</ele>
        <time>2015-02-22T08:57:02Z</time>
      </trkpt>
      <trkpt lat="43.71758" lon="0.97506">
        <ele>189.55</ele>
        <time>2015-02-22T08:57:03Z</time>
      </trkpt>
      <trkpt lat="43.71756" lon="0.97506">
        <ele>189.28</ele>
        <time>2015-02-22T08:57:05Z</time>
      </trkpt>
      <trkpt lat="43.7174" lon="0.97503">
        <ele>187.43</ele>
        <time>2015-02-22T08:57:20Z</time>
      </trkpt>
      <trkpt lat="43.71722" lon="0.975">
        <ele>184.99</ele>
        <time>2015-02-22T08:57:37Z</time>
      </trkpt>
      <trkpt lat="43.71704" lon="0.9749">
        <ele>182.62</ele>
        <time>2015-02-22T08:57:52Z</time>
      </trkpt>
      <trkpt lat="43.7169" lon="0.97486">
        <ele>180.56</ele>
        <time>2015-02-22T08:58:07Z</time>
      </trkpt>
      <trkpt lat="43.71674" lon="0.97486">
        <ele>177.6</ele>
        <time>2015-02-22T08:58:24Z</time>
      </trkpt>
      <trkpt lat="43.71668" lon="0.97486">
        <ele>176.73</ele>
        <time>2015-02-22T08:58:29Z</time>
      </trkpt>
      <trkpt lat="43.71653" lon="0.97483">
        <ele>174.95</ele>
        <time>2015-02-22T08:58:43Z</time>
      </trkpt>
      <trkpt lat="43.71636" lon="0.97478">
        <ele>172.63</ele>
        <time>2015-02-22T08:59:01Z</time>
      </trkpt>
      <trkpt lat="43.71626" lon="0.97472">
        <ele>171.48</ele>
        <time>2015-02-22T08:59:13Z</time>
      </trkpt>
      <trkpt lat="43.71614" lon="0.97458">
        <ele>169.31</ele>
        <time>2015-02-22T08:59:30Z</time>
      </trkpt>
      <trkpt lat="43.71601" lon="0.97435">
        <ele>166.49</ele>
        <time>2015-02-22T08:59:48Z</time>
      </trkpt>
      <trkpt lat="43.71593" lon="0.97417">
        <ele>164.71</ele>
        <time>2015-02-22T09:00:02Z</time>
      </trkpt>
      <trkpt lat="43.71588" lon="0.97391">
        <ele>163.63</ele>
        <time>2015-02-22T09:00:22Z</time>
      </trkpt>
      <trkpt lat="43.71587" lon="0.97365">
        <ele>162.32</ele>
        <time>2015-02-22T09:00:43Z</time>
      </trkpt>
      <trkpt lat="43.71585" lon="0.97339">
        <ele>161.81</ele>
        <time>2015-02-22T09:01:04Z</time>
      </trkpt>
      <trkpt lat="43.71585" lon="0.97319">
        <ele>161.27</ele>
        <time>2015-02-22T09:01:23Z</time>
      </trkpt>
      <trkpt lat="43.71584" lon="0.97297">
        <ele>161.37</ele>
        <time>2015-02-22T09:01:42Z</time>
      </trkpt>
      <trkpt lat="43.71584" lon="0.97292">
        <ele>161.86</ele>
        <time>2015-02-22T09:02:02Z</time>
      </trkpt>
      <trkpt lat="43.71573" lon="0.97287">
        <ele>160.85</ele>
        <time>2015-02-22T09:02:20Z</time>
      </trkpt>
      <trkpt lat="43.71549" lon="0.97278">
        <ele>161.55</ele>
        <time>2015-02-22T09:02:40Z</time>
      </trkpt>
      <trkpt lat="43.71538" lon="0.97271">
        <ele>162.01</ele>
        <time>2015-02-22T09:02:48Z</time>
      </trkpt>
      <trkpt lat="43.71512" lon="0.97263">
        <ele>163.55</ele>
        <time>2015-02-22T09:03:12Z</time>
      </trkpt>
      <trkpt lat="43.71487" lon="0.97254">
        <ele>166.26</ele>
        <time>2015-02-22T09:03:36Z</time>
      </trkpt>
      <trkpt lat="43.71471" lon="0.97237">
        <ele>167.34</ele>
        <time>2015-02-22T09:03:52Z</time>
      </trkpt>
      <trkpt lat="43.71456" lon="0.97231">
        <ele>169.19</ele>
        <time>2015-02-22T09:04:11Z</time>
      </trkpt>
      <trkpt lat="43.71448" lon="0.97222">
        <ele>170.04</ele>
        <time>2015-02-22T09:04:32Z</time>
      </trkpt>
      <trkpt lat="43.71447" lon="0.97222">
        <ele>170.07</ele>
        <time>2015-02-22T09:04:33Z</time>
      </trkpt>
      <trkpt lat="43.71441" lon="0.97221">
        <ele>170.47</ele>
        <time>2015-02-22T09:04:40Z</time>
      </trkpt>
      <trkpt lat="43.71434" lon="0.97221">
        <ele>171.16</ele>
        <time>2015-02-22T09:04:47Z</time>
      </trkpt>
      <trkpt lat="43.71425" lon="0.97217">
        <ele>172.22</ele>
        <time>2015-02-22T09:04:56Z</time>
      </trkpt>
      <trkpt lat="43.71407" lon="0.97207">
        <ele>174.04</ele>
        <time>2015-02-22T09:05:15Z</time>
      </trkpt>
      <trkpt lat="43.71389" lon="0.97202">
        <ele>175.12</ele>
        <time>2015-02-22T09:05:30Z</time>
      </trkpt>
      <trkpt lat="43.71373" lon="0.97192">
        <ele>176.43</ele>
        <time>2015-02-22T09:05:45Z</time>
      </trkpt>
      <trkpt lat="43.71356" lon="0.97179">
        <ele>177.73</ele>
        <time>2015-02-22T09:06:00Z</time>
      </trkpt>
      <trkpt lat="43.71335" lon="0.97157">
        <ele>178.94</ele>
        <time>2015-02-22T09:06:18Z</time>
      </trkpt>
      <trkpt lat="43.7132" lon="0.97144">
        <ele>180.46</ele>
        <time>2015-02-22T09:06:34Z</time>
      </trkpt>
      <trkpt lat="43.71315" lon="0.97142">
        <ele>180.98</ele>
        <time>2015-02-22T09:06:38Z</time>
      </trkpt>
      <trkpt lat="43.71308" lon="0.97138">
        <ele>181.65</ele>
        <time>2015-02-22T09:06:44Z</time>
      </trkpt>
      <trkpt lat="43.71291" lon="0.97129">
        <ele>183.38</ele>
        <time>2015-02-22T09:07:00Z</time>
      </trkpt>
      <trkpt lat="43.71275" lon="0.97122">
        <ele>184.67</ele>
        <time>2015-02-22T09:07:16Z</time>
      </trkpt>
      <trkpt lat="43.7126" lon="0.97114">
        <ele>186.13</ele>
        <time>2015-02-22T09:07:33Z</time>
      </trkpt>
      <trkpt lat="43.71249" lon="0.97106">
        <ele>186.97</ele>
        <time>2015-02-22T09:07:47Z</time>
      </trkpt>
      <trkpt lat="43.71236" lon="0.97102">
        <ele>188.17</ele>
        <time>2015-02-22T09:08:03Z</time>
      </trkpt>
      <trkpt lat="43.71222" lon="0.97098">
        <ele>190.56</ele>
        <time>2015-02-22T09:08:20Z</time>
      </trkpt>
      <trkpt lat="43.71211" lon="0.97095">
        <ele>191.96</ele>
        <time>2015-02-22T09:08:35Z</time>
      </trkpt>
      <trkpt lat="43.71197" lon="0.97091">
        <ele>192.88</ele>
        <time>2015-02-22T09:08:54Z</time>
      </trkpt>
      <trkpt lat="43.71189" lon="0.97084">
        <ele>193.18</ele>
        <time>2015-02-22T09:09:18Z</time>
      </trkpt>
      <trkpt lat="43.71189" lon="0.97083">
        <ele>193.21</ele>
        <time>2015-02-22T09:09:29Z</time>
      </trkpt>
      <trkpt lat="43.71189" lon="0.97075">
        <ele>192.91</ele>
        <time>2015-02-22T09:09:59Z</time>
      </trkpt>
      <trkpt lat="43.71191" lon="0.97076">
        <ele>192.98</ele>
        <time>2015-02-22T09:10:24Z</time>
      </trkpt>
      <trkpt lat="43.71189" lon="0.97073">
        <ele>193.05</ele>
        <time>2015-02-22T09:10:56Z</time>
      </trkpt>
      <trkpt lat="43.71178" lon="0.97068">
        <ele>193.09</ele>
        <time>2015-02-22T09:11:14Z</time>
      </trkpt>
      <trkpt lat="43.71163" lon="0.97058">
        <ele>191.33</ele>
        <time>2015-02-22T09:11:36Z</time>
      </trkpt>
      <trkpt lat="43.71158" lon="0.97055">
        <ele>190.73</ele>
        <time>2015-02-22T09:11:42Z</time>
      </trkpt>
      <trkpt lat="43.71144" lon="0.97044">
        <ele>188.07</ele>
        <time>2015-02-22T09:11:59Z</time>
      </trkpt>
      <trkpt lat="43.7113" lon="0.97034">
        <ele>185.65</ele>
        <time>2015-02-22T09:12:14Z</time>
      </trkpt>
      <trkpt lat="43.71117" lon="0.97027">
        <ele>183.79</ele>
        <time>2015-02-22T09:12:31Z</time>
      </trkpt>
      <trkpt lat="43.71101" lon="0.97019">
        <ele>181.44</ele>
        <time>2015-02-22T09:12:49Z</time>
      </trkpt>
      <trkpt lat="43.71088" lon="0.97012">
        <ele>179.27</ele>
        <time>2015-02-22T09:13:08Z</time>
      </trkpt>
      <trkpt lat="43.71072" lon="0.97003">
        <ele>176.97</ele>
        <time>2015-02-22T09:13:24Z</time>
      </trkpt>
      <trkpt lat="43.71055" lon="0.96991">
        <ele>173.95</ele>
        <time>2015-02-22T09:13:45Z</time>
      </trkpt>
      <trkpt lat="43.71042" lon="0.9698">
        <ele>170.92</ele>
        <time>2015-02-22T09:14:03Z</time>
      </trkpt>
      <trkpt lat="43.71027" lon="0.96966">
        <ele>168.9</ele>
        <time>2015-02-22T09:14:22Z</time>
      </trkpt>
      <trkpt lat="43.71013" lon="0.96952">
        <ele>166.06</ele>
        <time>2015-02-22T09:14:43Z</time>
      </trkpt>
      <trkpt lat="43.70999" lon="0.96941">
        <ele>162.91</ele>
        <time>2015-02-22T09:15:03Z</time>
      </trkpt>
      <trkpt lat="43.70983" lon="0.96924">
        <ele>159.89</ele>
        <time>2015-02-22T09:15:23Z</time>
      </trkpt>
      <trkpt lat="43.70962" lon="0.96915">
        <ele>156.96</ele>
        <time>2015-02-22T09:15:48Z</time>
      </trkpt>
      <trkpt lat="43.70948" lon="0.96911">
        <ele>153.85</ele>
        <time>2015-02-22T09:16:08Z</time>
      </trkpt>
      <trkpt lat="43.70931" lon="0.96907">
        <ele>150.78</ele>
        <time>2015-02-22T09:16:28Z</time>
      </trkpt>
      <trkpt lat="43.70911" lon="0.96897">
        <ele>148.5</ele>
        <time>2015-02-22T09:16:48Z</time>
      </trkpt>
      <trkpt lat="43.70895" lon="0.96889">
        <ele>147.52</ele>
        <time>2015-02-22T09:17:07Z</time>
      </trkpt>
      <trkpt lat="43.70891" lon="0.96888">
        <ele>147.21</ele>
        <time>2015-02-22T09:17:29Z</time>
      </trkpt>
      <trkpt lat="43.7089" lon="0.9689">
        <ele>146.97</ele>
        <time>2015-02-22T09:17:54Z</time>
      </trkpt>
      <trkpt lat="43.70881" lon="0.96886">
        <ele>146.58</ele>
        <time>2015-02-22T09:18:12Z</time>
      </trkpt>
      <trkpt lat="43.70876" lon="0.96884">
        <ele>146.24</ele>
        <time>2015-02-22T09:18:17Z</time>
      </trkpt>
      <trkpt lat="43.7086" lon="0.96879">
        <ele>146.14</ele>
        <time>2015-02-22T09:18:32Z</time>
      </trkpt>
      <trkpt lat="43.70855" lon="0.96878">
        <ele>145.74</ele>
        <time>2015-02-22T09:18:37Z</time>
      </trkpt>
      <trkpt lat="43.70839" lon="0.96873">
        <ele>144.78</ele>
        <time>2015-02-22T09:18:53Z</time>
      </trkpt>
      <trkpt lat="43.70833" lon="0.96868">
        <ele>144.58</ele>
        <time>2015-02-22T09:18:59Z</time>
      </trkpt>
      <trkpt lat="43.70822" lon="0.96858">
        <ele>144.41</ele>
        <time>2015-02-22T09:19:17Z</time>
      </trkpt>
      <trkpt lat="43.70813" lon="0.9684">
        <ele>144.45</ele>
        <time>2015-02-22T09:19:32Z</time>
      </trkpt>
      <trkpt lat="43.70806" lon="0.96833">
        <ele>144.43</ele>
        <time>2015-02-22T09:19:40Z</time>
      </trkpt>
      <trkpt lat="43.70792" lon="0.96815">
        <ele>144.63</ele>
        <time>2015-02-22T09:19:55Z</time>
      </trkpt>
      <trkpt lat="43.70788" lon="0.9681">
        <ele>144.84</ele>
        <time>2015-02-22T09:20:08Z</time>
      </trkpt>
      <trkpt lat="43.70783" lon="0.96804">
        <ele>144.75</ele>
        <time>2015-02-22T09:20:24Z</time>
      </trkpt>
      <trkpt lat="43.70779" lon="0.96799">
        <ele>145.2</ele>
        <time>2015-02-22T09:20:47Z</time>
      </trkpt>
      <trkpt lat="43.70772" lon="0.96793">
        <ele>144.82</ele>
        <time>2015-02-22T09:21:04Z</time>
      </trkpt>
      <trkpt lat="43.70757" lon="0.96779">
        <ele>143.82</ele>
        <time>2015-02-22T09:21:21Z</time>
      </trkpt>
      <trkpt lat="43.70744" lon="0.96765">
        <ele>143.68</ele>
        <time>2015-02-22T09:21:35Z</time>
      </trkpt>
      <trkpt lat="43.70729" lon="0.96748">
        <ele>143.73</ele>
        <time>2015-02-22T09:21:50Z</time>
      </trkpt>
      <trkpt lat="43.70723" lon="0.96738">
        <ele>143.91</ele>
        <time>2015-02-22T09:22:05Z</time>
      </trkpt>
      <trkpt lat="43.7072" lon="0.96734">
        <ele>143.67</ele>
        <time>2015-02-22T09:22:11Z</time>
      </trkpt>
      <trkpt lat="43.707" lon="0.96716">
        <ele>143.65</ele>
        <time>2015-02-22T09:22:29Z</time>
      </trkpt>
      <trkpt lat="43.70684" lon="0.96703">
        <ele>143.75</ele>
        <time>2015-02-22T09:22:44Z</time>
      </trkpt>
      <trkpt lat="43.70667" lon="0.96686">
        <ele>144.93</ele>
        <time>2015-02-22T09:23:02Z</time>
      </trkpt>
      <trkpt lat="43.70654" lon="0.96682">
        <ele>145.05</ele>
        <time>2015-02-22T09:23:15Z</time>
      </trkpt>
      <trkpt lat="43.7064" lon="0.96677">
        <ele>145.68</ele>
        <time>2015-02-22T09:23:29Z</time>
      </trkpt>
      <trkpt lat="43.70618" lon="0.96671">
        <ele>147.14</ele>
        <time>2015-02-22T09:23:51Z</time>
      </trkpt>
      <trkpt lat="43.70595" lon="0.96663">
        <ele>148.79</ele>
        <time>2015-02-22T09:24:13Z</time>
      </trkpt>
      <trkpt lat="43.70574" lon="0.96655">
        <ele>150.76</ele>
        <time>2015-02-22T09:24:35Z</time>
      </trkpt>
      <trkpt lat="43.70553" lon="0.96645">
        <ele>152.55</ele>
        <time>2015-02-22T09:24:55Z</time>
      </trkpt>
      <trkpt lat="43.70532" lon="0.96636">
        <ele>154.05</ele>
        <time>2015-02-22T09:25:15Z</time>
      </trkpt>
      <trkpt lat="43.70514" lon="0.96627">
        <ele>156.04</ele>
        <time>2015-02-22T09:25:35Z</time>
      </trkpt>
      <trkpt lat="43.70486" lon="0.96623">
        <ele>158.4</ele>
        <time>2015-02-22T09:25:58Z</time>
      </trkpt>
      <trkpt lat="43.70479" lon="0.96621">
        <ele>159.06</ele>
        <time>2015-02-22T09:26:07Z</time>
      </trkpt>
      <trkpt lat="43.70455" lon="0.96607">
        <ele>160.37</ele>
        <time>2015-02-22T09:26:30Z</time>
      </trkpt>
      <trkpt lat="43.70441" lon="0.966">
        <ele>161.06</ele>
        <time>2015-02-22T09:26:42Z</time>
      </trkpt>
      <trkpt lat="43.70425" lon="0.96592">
        <ele>161.36</ele>
        <time>2015-02-22T09:26:55Z</time>
      </trkpt>
      <trkpt lat="43.70419" lon="0.9659">
        <ele>161.71</ele>
        <time>2015-02-22T09:27:00Z</time>
      </trkpt>
      <trkpt lat="43.70403" lon="0.96578">
        <ele>161.98</ele>
        <time>2015-02-22T09:27:14Z</time>
      </trkpt>
      <trkpt lat="43.70386" lon="0.96568">
        <ele>162.81</ele>
        <time>2015-02-22T09:27:28Z</time>
      </trkpt>
      <trkpt lat="43.70385" lon="0.96567">
        <ele>162.82</ele>
        <time>2015-02-22T09:27:29Z</time>
      </trkpt>
      <trkpt lat="43.7038" lon="0.96566">
        <ele>162.92</ele>
        <time>2015-02-22T09:27:33Z</time>
      </trkpt>
      <trkpt lat="43.70365" lon="0.96555">
        <ele>164.15</ele>
        <time>2015-02-22T09:27:47Z</time>
      </trkpt>
      <trkpt lat="43.70356" lon="0.96547">
        <ele>165.06</ele>
        <time>2015-02-22T09:27:55Z</time>
      </trkpt>
      <trkpt lat="43.70342" lon="0.96532">
        <ele>166.5</ele>
        <time>2015-02-22T09:28:10Z</time>
      </trkpt>
      <trkpt lat="43.70331" lon="0.96512">
        <ele>168.99</ele>
        <time>2015-02-22T09:28:27Z</time>
      </trkpt>
      <trkpt lat="43.7033" lon="0.9651">
        <ele>169.19</ele>
        <time>2015-02-22T09:28:29Z</time>
      </trkpt>
      <trkpt lat="43.70323" lon="0.96493">
        <ele>170.88</ele>
        <time>2015-02-22T09:28:46Z</time>
      </trkpt>
      <trkpt lat="43.70315" lon="0.9647">
        <ele>172.23</ele>
        <time>2015-02-22T09:29:04Z</time>
      </trkpt>
      <trkpt lat="43.7031" lon="0.96461">
        <ele>171.42</ele>
        <time>2015-02-22T09:29:21Z</time>
      </trkpt>
      <trkpt lat="43.70308" lon="0.96458">
        <ele>171.2</ele>
        <time>2015-02-22T09:29:44Z</time>
      </trkpt>
      <trkpt lat="43.70306" lon="0.96456">
        <ele>171.39</ele>
        <time>2015-02-22T09:30:12Z</time>
      </trkpt>
      <trkpt lat="43.70299" lon="0.9645">
        <ele>171.36</ele>
        <time>2015-02-22T09:30:40Z</time>
      </trkpt>
      <trkpt lat="43.70285" lon="0.96431">
        <ele>170.18</ele>
        <time>2015-02-22T09:31:03Z</time>
      </trkpt>
      <trkpt lat="43.70273" lon="0.96414">
        <ele>169.85</ele>
        <time>2015-02-22T09:31:20Z</time>
      </trkpt>
      <trkpt lat="43.70262" lon="0.96398">
        <ele>169.82</ele>
        <time>2015-02-22T09:31:35Z</time>
      </trkpt>
      <trkpt lat="43.70252" lon="0.96379">
        <ele>170.36</ele>
        <time>2015-02-22T09:31:50Z</time>
      </trkpt>
      <trkpt lat="43.70243" lon="0.96354">
        <ele>169.93</ele>
        <time>2015-02-22T09:32:08Z</time>
      </trkpt>
      <trkpt lat="43.70237" lon="0.96326">
        <ele>170.74</ele>
        <time>2015-02-22T09:32:27Z</time>
      </trkpt>
      <trkpt lat="43.70232" lon="0.96298">
        <ele>171.76</ele>
        <time>2015-02-22T09:32:45Z</time>
      </trkpt>
      <trkpt lat="43.70227" lon="0.96268">
        <ele>172.19</ele>
        <time>2015-02-22T09:33:03Z</time>
      </trkpt>
      <trkpt lat="43.70222" lon="0.96241">
        <ele>173.56</ele>
        <time>2015-02-22T09:33:20Z</time>
      </trkpt>
      <trkpt lat="43.70212" lon="0.96212">
        <ele>173.97</ele>
        <time>2015-02-22T09:33:39Z</time>
      </trkpt>
      <trkpt lat="43.70202" lon="0.96186">
        <ele>174.15</ele>
        <time>2015-02-22T09:33:56Z</time>
      </trkpt>
      <trkpt lat="43.70191" lon="0.96158">
        <ele>173.43</ele>
        <time>2015-02-22T09:34:15Z</time>
      </trkpt>
      <trkpt lat="43.70185" lon="0.96131">
        <ele>172.16</ele>
        <time>2015-02-22T09:34:31Z</time>
      </trkpt>
      <trkpt lat="43.7018" lon="0.96102">
        <ele>170.64</ele>
        <time>2015-02-22T09:34:48Z</time>
      </trkpt>
      <trkpt lat="43.70177" lon="0.96063">
        <ele>170.8</ele>
        <time>2015-02-22T09:35:08Z</time>
      </trkpt>
      <trkpt lat="43.70163" lon="0.96036">
        <ele>170.02</ele>
        <time>2015-02-22T09:35:26Z</time>
      </trkpt>
      <trkpt lat="43.70146" lon="0.96017">
        <ele>170.4</ele>
        <time>2015-02-22T09:35:44Z</time>
      </trkpt>
      <trkpt lat="43.70128" lon="0.95995">
        <ele>171.37</ele>
        <time>2015-02-22T09:36:02Z</time>
      </trkpt>
      <trkpt lat="43.70112" lon="0.95977">
        <ele>173.46</ele>
        <time>2015-02-22T09:36:20Z</time>
      </trkpt>
      <trkpt lat="43.70095" lon="0.95958">
        <ele>175.37</ele>
        <time>2015-02-22T09:36:39Z</time>
      </trkpt>
      <trkpt lat="43.7008" lon="0.95939">
        <ele>177.62</ele>
        <time>2015-02-22T09:36:58Z</time>
      </trkpt>
      <trkpt lat="43.70068" lon="0.95923">
        <ele>178.94</ele>
        <time>2015-02-22T09:37:13Z</time>
      </trkpt>
      <trkpt lat="43.70064" lon="0.95915">
        <ele>180.2</ele>
        <time>2015-02-22T09:37:30Z</time>
      </trkpt>
      <trkpt lat="43.70063" lon="0.95912">
        <ele>180.43</ele>
        <time>2015-02-22T09:37:56Z</time>
      </trkpt>
      <trkpt lat="43.70063" lon="0.95914">
        <ele>180.52</ele>
        <time>2015-02-22T09:38:24Z</time>
      </trkpt>
      <trkpt lat="43.70063" lon="0.95911">
        <ele>180.3</ele>
        <time>2015-02-22T09:38:52Z</time>
      </trkpt>
      <trkpt lat="43.70058" lon="0.95913">
        <ele>180.55</ele>
        <time>2015-02-22T09:39:22Z</time>
      </trkpt>
      <trkpt lat="43.70048" lon="0.9593">
        <ele>181.6</ele>
        <time>2015-02-22T09:39:42Z</time>
      </trkpt>
      <trkpt lat="43.70036" lon="0.95946">
        <ele>182.4</ele>
        <time>2015-02-22T09:40:03Z</time>
      </trkpt>
      <trkpt lat="43.70033" lon="0.95953">
        <ele>182.53</ele>
        <time>2015-02-22T09:40:09Z</time>
      </trkpt>
      <trkpt lat="43.70023" lon="0.95973">
        <ele>182</ele>
        <time>2015-02-22T09:40:26Z</time>
      </trkpt>
      <trkpt lat="43.70013" lon="0.95988">
        <ele>180.83</ele>
        <time>2015-02-22T09:40:44Z</time>
      </trkpt>
      <trkpt lat="43.7" lon="0.96007">
        <ele>179.67</ele>
        <time>2015-02-22T09:41:03Z</time>
      </trkpt>
      <trkpt lat="43.69993" lon="0.9602">
        <ele>179.1</ele>
        <time>2015-02-22T09:41:15Z</time>
      </trkpt>
      <trkpt lat="43.69985" lon="0.96035">
        <ele>178.7</ele>
        <time>2015-02-22T09:41:28Z</time>
      </trkpt>
      <trkpt lat="43.69978" lon="0.96057">
        <ele>178.11</ele>
        <time>2015-02-22T09:41:47Z</time>
      </trkpt>
      <trkpt lat="43.6997" lon="0.96082">
        <ele>178.31</ele>
        <time>2015-02-22T09:42:08Z</time>
      </trkpt>
      <trkpt lat="43.69962" lon="0.96108">
        <ele>178.58</ele>
        <time>2015-02-22T09:42:27Z</time>
      </trkpt>
      <trkpt lat="43.69954" lon="0.96133">
        <ele>179.81</ele>
        <time>2015-02-22T09:42:46Z</time>
      </trkpt>
      <trkpt lat="43.6995" lon="0.96146">
        <ele>180.53</ele>
        <time>2015-02-22T09:42:56Z</time>
      </trkpt>
      <trkpt lat="43.69944" lon="0.96154">
        <ele>180.95</ele>
        <time>2015-02-22T09:43:04Z</time>
      </trkpt>
      <trkpt lat="43.69929" lon="0.96157">
        <ele>181.89</ele>
        <time>2015-02-22T09:43:21Z</time>
      </trkpt>
      <trkpt lat="43.69909" lon="0.96159">
        <ele>182.15</ele>
        <time>2015-02-22T09:43:40Z</time>
      </trkpt>
      <trkpt lat="43.69892" lon="0.96162">
        <ele>183.03</ele>
        <time>2015-02-22T09:44:00Z</time>
      </trkpt>
      <trkpt lat="43.69889" lon="0.96168">
        <ele>182.77</ele>
        <time>2015-02-22T09:44:08Z</time>
      </trkpt>
      <trkpt lat="43.69892" lon="0.96195">
        <ele>182.52</ele>
        <time>2015-02-22T09:44:26Z</time>
      </trkpt>
      <trkpt lat="43.69894" lon="0.9622">
        <ele>182.52</ele>
        <time>2015-02-22T09:44:43Z</time>
      </trkpt>
      <trkpt lat="43.69895" lon="0.96246">
        <ele>182.67</ele>
        <time>2015-02-22T09:45:00Z</time>
      </trkpt>
      <trkpt lat="43.69896" lon="0.96276">
        <ele>181.83</ele>
        <time>2015-02-22T09:45:20Z</time>
      </trkpt>
      <trkpt lat="43.69892" lon="0.96301">
        <ele>181.33</ele>
        <time>2015-02-22T09:45:37Z</time>
      </trkpt>
      <trkpt lat="43.69886" lon="0.9632">
        <ele>180.85</ele>
        <time>2015-02-22T09:45:50Z</time>
      </trkpt>
      <trkpt lat="43.69877" lon="0.96343">
        <ele>179.44</ele>
        <time>2015-02-22T09:46:07Z</time>
      </trkpt>
      <trkpt lat="43.69867" lon="0.96364">
        <ele>177.65</ele>
        <time>2015-02-22T09:46:23Z</time>
      </trkpt>
      <trkpt lat="43.69859" lon="0.96386">
        <ele>176.16</ele>
        <time>2015-02-22T09:46:39Z</time>
      </trkpt>
      <trkpt lat="43.69847" lon="0.96412">
        <ele>174.12</ele>
        <time>2015-02-22T09:46:58Z</time>
      </trkpt>
      <trkpt lat="43.69835" lon="0.9644">
        <ele>172.99</ele>
        <time>2015-02-22T09:47:18Z</time>
      </trkpt>
      <trkpt lat="43.69824" lon="0.96468">
        <ele>172.55</ele>
        <time>2015-02-22T09:47:37Z</time>
      </trkpt>
      <trkpt lat="43.69815" lon="0.96501">
        <ele>171.47</ele>
        <time>2015-02-22T09:47:59Z</time>
      </trkpt>
      <trkpt lat="43.6981" lon="0.96528">
        <ele>170.29</ele>
        <time>2015-02-22T09:48:17Z</time>
      </trkpt>
      <trkpt lat="43.69805" lon="0.96562">
        <ele>168.63</ele>
        <time>2015-02-22T09:48:39Z</time>
      </trkpt>
      <trkpt lat="43.69799" lon="0.96595">
        <ele>167.35</ele>
        <time>2015-02-22T09:49:01Z</time>
      </trkpt>
      <trkpt lat="43.69794" lon="0.96626">
        <ele>166.34</ele>
        <time>2015-02-22T09:49:21Z</time>
      </trkpt>
      <trkpt lat="43.69787" lon="0.96664">
        <ele>163.76</ele>
        <time>2015-02-22T09:49:45Z</time>
      </trkpt>
      <trkpt lat="43.69784" lon="0.96694">
        <ele>161.6</ele>
        <time>2015-02-22T09:50:04Z</time>
      </trkpt>
      <trkpt lat="43.69786" lon="0.96719">
        <ele>160.07</ele>
        <time>2015-02-22T09:50:21Z</time>
      </trkpt>
      <trkpt lat="43.69789" lon="0.96745">
        <ele>158.22</ele>
        <time>2015-02-22T09:50:39Z</time>
      </trkpt>
      <trkpt lat="43.69788" lon="0.96772">
        <ele>156.39</ele>
        <time>2015-02-22T09:50:55Z</time>
      </trkpt>
      <trkpt lat="43.69783" lon="0.96801">
        <ele>153.35</ele>
        <time>2015-02-22T09:51:10Z</time>
      </trkpt>
      <trkpt lat="43.6977" lon="0.9683">
        <ele>150.25</ele>
        <time>2015-02-22T09:51:29Z</time>
      </trkpt>
      <trkpt lat="43.69757" lon="0.96856">
        <ele>147.61</ele>
        <time>2015-02-22T09:51:48Z</time>
      </trkpt>
      <trkpt lat="43.69746" lon="0.96886">
        <ele>145.82</ele>
        <time>2015-02-22T09:52:09Z</time>
      </trkpt>
      <trkpt lat="43.6974" lon="0.96907">
        <ele>144.53</ele>
        <time>2015-02-22T09:52:24Z</time>
      </trkpt>
      <trkpt lat="43.69729" lon="0.96936">
        <ele>145.01</ele>
        <time>2015-02-22T09:52:42Z</time>
      </trkpt>
      <trkpt lat="43.69718" lon="0.96964">
        <ele>146.01</ele>
        <time>2015-02-22T09:53:01Z</time>
      </trkpt>
      <trkpt lat="43.6971" lon="0.96988">
        <ele>147.33</ele>
        <time>2015-02-22T09:53:17Z</time>
      </trkpt>
      <trkpt lat="43.69706" lon="0.97002">
        <ele>148.44</ele>
        <time>2015-02-22T09:53:28Z</time>
      </trkpt>
      <trkpt lat="43.69707" lon="0.97021">
        <ele>150.9</ele>
        <time>2015-02-22T09:53:45Z</time>
      </trkpt>
      <trkpt lat="43.69711" lon="0.97047">
        <ele>154.03</ele>
        <time>2015-02-22T09:54:05Z</time>
      </trkpt>
      <trkpt lat="43.69714" lon="0.97074">
        <ele>157.02</ele>
        <time>2015-02-22T09:54:26Z</time>
      </trkpt>
      <trkpt lat="43.69716" lon="0.97093">
        <ele>159.33</ele>
        <time>2015-02-22T09:54:42Z</time>
      </trkpt>
      <trkpt lat="43.69718" lon="0.97112">
        <ele>161.01</ele>
        <time>2015-02-22T09:54:58Z</time>
      </trkpt>
      <trkpt lat="43.69723" lon="0.97136">
        <ele>161.42</ele>
        <time>2015-02-22T09:55:17Z</time>
      </trkpt>
      <trkpt lat="43.69723" lon="0.97158">
        <ele>162.63</ele>
        <time>2015-02-22T09:55:35Z</time>
      </trkpt>
      <trkpt lat="43.69723" lon="0.9717">
        <ele>162.71</ele>
        <time>2015-02-22T09:55:57Z</time>
      </trkpt>
      <trkpt lat="43.69723" lon="0.97174">
        <ele>162.43</ele>
        <time>2015-02-22T09:56:23Z</time>
      </trkpt>
      <trkpt lat="43.69721" lon="0.97178">
        <ele>162.64</ele>
        <time>2015-02-22T09:56:51Z</time>
      </trkpt>
      <trkpt lat="43.69721" lon="0.97176">
        <ele>162.89</ele>
        <time>2015-02-22T09:57:20Z</time>
      </trkpt>
      <trkpt lat="43.69725" lon="0.97175">
        <ele>162.94</ele>
        <time>2015-02-22T09:57:52Z</time>
      </trkpt>
      <trkpt lat="43.69725" lon="0.97181">
        <ele>162.67</ele>
        <time>2015-02-22T09:58:17Z</time>
      </trkpt>
      <trkpt lat="43.69725" lon="0.9718">
        <ele>162.29</ele>
        <time>2015-02-22T09:58:37Z</time>
      </trkpt>
      <trkpt lat="43.69723" lon="0.97179">
        <ele>161.84</ele>
        <time>2015-02-22T09:59:06Z</time>
      </trkpt>
      <trkpt lat="43.69722" lon="0.9718">
        <ele>161.71</ele>
        <time>2015-02-22T09:59:34Z</time>
      </trkpt>
      <trkpt lat="43.69722" lon="0.97178">
        <ele>162.13</ele>
        <time>2015-02-22T09:59:59Z</time>
      </trkpt>
      <trkpt lat="43.69723" lon="0.97178">
        <ele>161.95</ele>
        <time>2015-02-22T10:00:23Z</time>
      </trkpt>
      <trkpt lat="43.69722" lon="0.97179">
        <ele>162.14</ele>
        <time>2015-02-22T10:00:48Z</time>
      </trkpt>
      <trkpt lat="43.69714" lon="0.97184">
        <ele>162.52</ele>
        <time>2015-02-22T10:01:10Z</time>
      </trkpt>
      <trkpt lat="43.69702" lon="0.97196">
        <ele>162.83</ele>
        <time>2015-02-22T10:01:27Z</time>
      </trkpt>
      <trkpt lat="43.69687" lon="0.97212">
        <ele>162.92</ele>
        <time>2015-02-22T10:01:43Z</time>
      </trkpt>
      <trkpt lat="43.69674" lon="0.97225">
        <ele>163.28</ele>
        <time>2015-02-22T10:01:59Z</time>
      </trkpt>
      <trkpt lat="43.6966" lon="0.97243">
        <ele>163.64</ele>
        <time>2015-02-22T10:02:16Z</time>
      </trkpt>
      <trkpt lat="43.69648" lon="0.97257">
        <ele>164.52</ele>
        <time>2015-02-22T10:02:32Z</time>
      </trkpt>
      <trkpt lat="43.69647" lon="0.97258">
        <ele>164.58</ele>
        <time>2015-02-22T10:02:34Z</time>
      </trkpt>
      <trkpt lat="43.69631" lon="0.97267">
        <ele>164.63</ele>
        <time>2015-02-22T10:02:49Z</time>
      </trkpt>
      <trkpt lat="43.69625" lon="0.9727">
        <ele>165.19</ele>
        <time>2015-02-22T10:02:55Z</time>
      </trkpt>
      <trkpt lat="43.69605" lon="0.97279">
        <ele>165.52</ele>
        <time>2015-02-22T10:03:15Z</time>
      </trkpt>
      <trkpt lat="43.69589" lon="0.9728">
        <ele>166.08</ele>
        <time>2015-02-22T10:03:31Z</time>
      </trkpt>
      <trkpt lat="43.6957" lon="0.97273">
        <ele>166.71</ele>
        <time>2015-02-22T10:03:49Z</time>
      </trkpt>
      <trkpt lat="43.69565" lon="0.97273">
        <ele>166.43</ele>
        <time>2015-02-22T10:04:08Z</time>
      </trkpt>
      <trkpt lat="43.69564" lon="0.97273">
        <ele>166.43</ele>
        <time>2015-02-22T10:04:09Z</time>
      </trkpt>
      <trkpt lat="43.69561" lon="0.97272">
        <ele>166.49</ele>
        <time>2015-02-22T10:04:12Z</time>
      </trkpt>
      <trkpt lat="43.69554" lon="0.9727">
        <ele>166.62</ele>
        <time>2015-02-22T10:04:17Z</time>
      </trkpt>
      <trkpt lat="43.69541" lon="0.9727">
        <ele>166.01</ele>
        <time>2015-02-22T10:04:27Z</time>
      </trkpt>
      <trkpt lat="43.69526" lon="0.97286">
        <ele>166.69</ele>
        <time>2015-02-22T10:04:43Z</time>
      </trkpt>
      <trkpt lat="43.69506" lon="0.973">
        <ele>166.34</ele>
        <time>2015-02-22T10:05:02Z</time>
      </trkpt>
      <trkpt lat="43.69485" lon="0.97317">
        <ele>166.27</ele>
        <time>2015-02-22T10:05:20Z</time>
      </trkpt>
      <trkpt lat="43.69471" lon="0.97328">
        <ele>166.87</ele>
        <time>2015-02-22T10:05:33Z</time>
      </trkpt>
      <trkpt lat="43.69467" lon="0.97331">
        <ele>167.01</ele>
        <time>2015-02-22T10:05:51Z</time>
      </trkpt>
      <trkpt lat="43.69465" lon="0.97335">
        <ele>166.92</ele>
        <time>2015-02-22T10:05:54Z</time>
      </trkpt>
      <trkpt lat="43.69447" lon="0.97351">
        <ele>167.72</ele>
        <time>2015-02-22T10:06:11Z</time>
      </trkpt>
      <trkpt lat="43.69431" lon="0.97375">
        <ele>168.45</ele>
        <time>2015-02-22T10:06:29Z</time>
      </trkpt>
      <trkpt lat="43.69411" lon="0.97394">
        <ele>169.46</ele>
        <time>2015-02-22T10:06:48Z</time>
      </trkpt>
      <trkpt lat="43.6939" lon="0.97415">
        <ele>169.25</ele>
        <time>2015-02-22T10:07:08Z</time>
      </trkpt>
      <trkpt lat="43.69371" lon="0.97433">
        <ele>169.62</ele>
        <time>2015-02-22T10:07:27Z</time>
      </trkpt>
      <trkpt lat="43.69354" lon="0.9744">
        <ele>169.63</ele>
        <time>2015-02-22T10:07:42Z</time>
      </trkpt>
      <trkpt lat="43.69335" lon="0.97443">
        <ele>169.72</ele>
        <time>2015-02-22T10:07:59Z</time>
      </trkpt>
      <trkpt lat="43.69317" lon="0.97446">
        <ele>170.2</ele>
        <time>2015-02-22T10:08:16Z</time>
      </trkpt>
      <trkpt lat="43.69312" lon="0.97446">
        <ele>170.35</ele>
        <time>2015-02-22T10:08:22Z</time>
      </trkpt>
      <trkpt lat="43.6931" lon="0.97445">
        <ele>170.36</ele>
        <time>2015-02-22T10:08:24Z</time>
      </trkpt>
      <trkpt lat="43.69306" lon="0.97449">
        <ele>170.39</ele>
        <time>2015-02-22T10:08:28Z</time>
      </trkpt>
      <trkpt lat="43.6929" lon="0.97464">
        <ele>170.42</ele>
        <time>2015-02-22T10:08:44Z</time>
      </trkpt>
      <trkpt lat="43.69286" lon="0.97466">
        <ele>170.4</ele>
        <time>2015-02-22T10:08:48Z</time>
      </trkpt>
      <trkpt lat="43.69266" lon="0.97483">
        <ele>171.06</ele>
        <time>2015-02-22T10:09:08Z</time>
      </trkpt>
      <trkpt lat="43.6925" lon="0.97493">
        <ele>171.68</ele>
        <time>2015-02-22T10:09:23Z</time>
      </trkpt>
      <trkpt lat="43.69239" lon="0.97505">
        <ele>172.33</ele>
        <time>2015-02-22T10:09:37Z</time>
      </trkpt>
      <trkpt lat="43.69225" lon="0.97517">
        <ele>173.09</ele>
        <time>2015-02-22T10:09:53Z</time>
      </trkpt>
      <trkpt lat="43.69217" lon="0.97524">
        <ele>173.46</ele>
        <time>2015-02-22T10:10:08Z</time>
      </trkpt>
      <trkpt lat="43.69216" lon="0.97525">
        <ele>173.55</ele>
        <time>2015-02-22T10:10:21Z</time>
      </trkpt>
      <trkpt lat="43.69214" lon="0.97527">
        <ele>173.58</ele>
        <time>2015-02-22T10:10:23Z</time>
      </trkpt>
      <trkpt lat="43.6921" lon="0.9753">
        <ele>173.68</ele>
        <time>2015-02-22T10:10:27Z</time>
      </trkpt>
      <trkpt lat="43.69197" lon="0.97547">
        <ele>173.91</ele>
        <time>2015-02-22T10:10:42Z</time>
      </trkpt>
      <trkpt lat="43.69185" lon="0.97569">
        <ele>174.69</ele>
        <time>2015-02-22T10:10:58Z</time>
      </trkpt>
      <trkpt lat="43.6917" lon="0.97591">
        <ele>175.03</ele>
        <time>2015-02-22T10:11:15Z</time>
      </trkpt>
      <trkpt lat="43.69164" lon="0.976">
        <ele>175.03</ele>
        <time>2015-02-22T10:11:23Z</time>
      </trkpt>
      <trkpt lat="43.69153" lon="0.97616">
        <ele>175.29</ele>
        <time>2015-02-22T10:11:38Z</time>
      </trkpt>
      <trkpt lat="43.69141" lon="0.97631">
        <ele>175.23</ele>
        <time>2015-02-22T10:11:53Z</time>
      </trkpt>
      <trkpt lat="43.69137" lon="0.97637">
        <ele>175.34</ele>
        <time>2015-02-22T10:11:59Z</time>
      </trkpt>
      <trkpt lat="43.69135" lon="0.97643">
        <ele>175.22</ele>
        <time>2015-02-22T10:12:04Z</time>
      </trkpt>
      <trkpt lat="43.69123" lon="0.97661">
        <ele>174.94</ele>
        <time>2015-02-22T10:12:21Z</time>
      </trkpt>
      <trkpt lat="43.69116" lon="0.97672">
        <ele>175.25</ele>
        <time>2015-02-22T10:12:35Z</time>
      </trkpt>
      <trkpt lat="43.69108" lon="0.97684">
        <ele>175.51</ele>
        <time>2015-02-22T10:12:50Z</time>
      </trkpt>
      <trkpt lat="43.69104" lon="0.97689">
        <ele>175.75</ele>
        <time>2015-02-22T10:12:56Z</time>
      </trkpt>
      <trkpt lat="43.69089" lon="0.97711">
        <ele>176.26</ele>
        <time>2015-02-22T10:13:16Z</time>
      </trkpt>
      <trkpt lat="43.69087" lon="0.97717">
        <ele>176.12</ele>
        <time>2015-02-22T10:13:29Z</time>
      </trkpt>
      <trkpt lat="43.69088" lon="0.97723">
        <ele>175.63</ele>
        <time>2015-02-22T10:13:46Z</time>
      </trkpt>
      <trkpt lat="43.69088" lon="0.97724">
        <ele>175.64</ele>
        <time>2015-02-22T10:13:47Z</time>
      </trkpt>
      <trkpt lat="43.69085" lon="0.97728">
        <ele>175.65</ele>
        <time>2015-02-22T10:13:50Z</time>
      </trkpt>
      <trkpt lat="43.69076" lon="0.97741">
        <ele>175.76</ele>
        <time>2015-02-22T10:14:01Z</time>
      </trkpt>
      <trkpt lat="43.69061" lon="0.97761">
        <ele>176.75</ele>
        <time>2015-02-22T10:14:19Z</time>
      </trkpt>
      <trkpt lat="43.69049" lon="0.97781">
        <ele>177.12</ele>
        <time>2015-02-22T10:14:36Z</time>
      </trkpt>
      <trkpt lat="43.69037" lon="0.97797">
        <ele>176.89</ele>
        <time>2015-02-22T10:14:50Z</time>
      </trkpt>
      <trkpt lat="43.69025" lon="0.97816">
        <ele>176.79</ele>
        <time>2015-02-22T10:15:07Z</time>
      </trkpt>
      <trkpt lat="43.69014" lon="0.97833">
        <ele>177.28</ele>
        <time>2015-02-22T10:15:23Z</time>
      </trkpt>
      <trkpt lat="43.69006" lon="0.97848">
        <ele>177.06</ele>
        <time>2015-02-22T10:15:37Z</time>
      </trkpt>
      <trkpt lat="43.69007" lon="0.97855">
        <ele>176.26</ele>
        <time>2015-02-22T10:15:54Z</time>
      </trkpt>
      <trkpt lat="43.69003" lon="0.97856">
        <ele>176.63</ele>
        <time>2015-02-22T10:16:17Z</time>
      </trkpt>
      <trkpt lat="43.68999" lon="0.97848">
        <ele>177.12</ele>
        <time>2015-02-22T10:16:41Z</time>
      </trkpt>
      <trkpt lat="43.68996" lon="0.97842">
        <ele>177.27</ele>
        <time>2015-02-22T10:17:02Z</time>
      </trkpt>
      <trkpt lat="43.69" lon="0.97847">
        <ele>177.5</ele>
        <time>2015-02-22T10:17:19Z</time>
      </trkpt>
      <trkpt lat="43.68999" lon="0.9785">
        <ele>177.14</ele>
        <time>2015-02-22T10:17:51Z</time>
      </trkpt>
      <trkpt lat="43.69" lon="0.97843">
        <ele>177.55</ele>
        <time>2015-02-22T10:18:12Z</time>
      </trkpt>
      <trkpt lat="43.69003" lon="0.97848">
        <ele>177.6</ele>
        <time>2015-02-22T10:18:36Z</time>
      </trkpt>
      <trkpt lat="43.69001" lon="0.97854">
        <ele>177.49</ele>
        <time>2015-02-22T10:19:01Z</time>
      </trkpt>
      <trkpt lat="43.69003" lon="0.97856">
        <ele>177.51</ele>
        <time>2015-02-22T10:19:21Z</time>
      </trkpt>
      <trkpt lat="43.69002" lon="0.97855">
        <ele>177.49</ele>
        <time>2015-02-22T10:19:54Z</time>
      </trkpt>
      <trkpt lat="43.69004" lon="0.97856">
        <ele>177.46</ele>
        <time>2015-02-22T10:20:27Z</time>
      </trkpt>
      <trkpt lat="43.69015" lon="0.97866">
        <ele>176.19</ele>
        <time>2015-02-22T10:20:44Z</time>
      </trkpt>
      <trkpt lat="43.69032" lon="0.97882">
        <ele>174.08</ele>
        <time>2015-02-22T10:21:04Z</time>
      </trkpt>
      <trkpt lat="43.69038" lon="0.97885">
        <ele>173.57</ele>
        <time>2015-02-22T10:21:09Z</time>
      </trkpt>
      <trkpt lat="43.69043" lon="0.97888">
        <ele>173.04</ele>
        <time>2015-02-22T10:21:14Z</time>
      </trkpt>
      <trkpt lat="43.69065" lon="0.97899">
        <ele>171.47</ele>
        <time>2015-02-22T10:21:34Z</time>
      </trkpt>
      <trkpt lat="43.69084" lon="0.9791">
        <ele>169.98</ele>
        <time>2015-02-22T10:21:51Z</time>
      </trkpt>
      <trkpt lat="43.69104" lon="0.97922">
        <ele>168.63</ele>
        <time>2015-02-22T10:22:09Z</time>
      </trkpt>
      <trkpt lat="43.69122" lon="0.97932">
        <ele>167.45</ele>
        <time>2015-02-22T10:22:31Z</time>
      </trkpt>
      <trkpt lat="43.69126" lon="0.97935">
        <ele>167.15</ele>
        <time>2015-02-22T10:22:37Z</time>
      </trkpt>
      <trkpt lat="43.69139" lon="0.97939">
        <ele>166.93</ele>
        <time>2015-02-22T10:22:50Z</time>
      </trkpt>
      <trkpt lat="43.69145" lon="0.97942">
        <ele>166.76</ele>
        <time>2015-02-22T10:23:01Z</time>
      </trkpt>
      <trkpt lat="43.69164" lon="0.97955">
        <ele>166.1</ele>
        <time>2015-02-22T10:23:18Z</time>
      </trkpt>
      <trkpt lat="43.6918" lon="0.97972">
        <ele>165.59</ele>
        <time>2015-02-22T10:23:34Z</time>
      </trkpt>
      <trkpt lat="43.69199" lon="0.97997">
        <ele>165.04</ele>
        <time>2015-02-22T10:23:54Z</time>
      </trkpt>
      <trkpt lat="43.69212" lon="0.98019">
        <ele>164.9</ele>
        <time>2015-02-22T10:24:10Z</time>
      </trkpt>
      <trkpt lat="43.69216" lon="0.98025">
        <ele>164.87</ele>
        <time>2015-02-22T10:24:15Z</time>
      </trkpt>
      <trkpt lat="43.6923" lon="0.9805">
        <ele>164.7</ele>
        <time>2015-02-22T10:24:34Z</time>
      </trkpt>
      <trkpt lat="43.69242" lon="0.98072">
        <ele>164.25</ele>
        <time>2015-02-22T10:24:50Z</time>
      </trkpt>
      <trkpt lat="43.69251" lon="0.98091">
        <ele>163.9</ele>
        <time>2015-02-22T10:25:04Z</time>
      </trkpt>
      <trkpt lat="43.69261" lon="0.98123">
        <ele>163.27</ele>
        <time>2015-02-22T10:25:24Z</time>
      </trkpt>
      <trkpt lat="43.69267" lon="0.98155">
        <ele>163.2</ele>
        <time>2015-02-22T10:25:42Z</time>
      </trkpt>
      <trkpt lat="43.69276" lon="0.98188">
        <ele>162.76</ele>
        <time>2015-02-22T10:26:01Z</time>
      </trkpt>
      <trkpt lat="43.69285" lon="0.98213">
        <ele>162.5</ele>
        <time>2015-02-22T10:26:19Z</time>
      </trkpt>
      <trkpt lat="43.69293" lon="0.98235">
        <ele>162.48</ele>
        <time>2015-02-22T10:26:35Z</time>
      </trkpt>
      <trkpt lat="43.69304" lon="0.98257">
        <ele>162.64</ele>
        <time>2015-02-22T10:26:53Z</time>
      </trkpt>
      <trkpt lat="43.69315" lon="0.98268">
        <ele>163.07</ele>
        <time>2015-02-22T10:27:08Z</time>
      </trkpt>
      <trkpt lat="43.69328" lon="0.98279">
        <ele>162.18</ele>
        <time>2015-02-22T10:27:27Z</time>
      </trkpt>
      <trkpt lat="43.69343" lon="0.9829">
        <ele>159.09</ele>
        <time>2015-02-22T10:27:47Z</time>
      </trkpt>
      <trkpt lat="43.6935" lon="0.983">
        <ele>157.43</ele>
        <time>2015-02-22T10:28:00Z</time>
      </trkpt>
      <trkpt lat="43.69365" lon="0.98317">
        <ele>155.1</ele>
        <time>2015-02-22T10:28:17Z</time>
      </trkpt>
      <trkpt lat="43.69376" lon="0.9833">
        <ele>152.75</ele>
        <time>2015-02-22T10:28:33Z</time>
      </trkpt>
      <trkpt lat="43.69389" lon="0.98353">
        <ele>149.96</ele>
        <time>2015-02-22T10:28:53Z</time>
      </trkpt>
      <trkpt lat="43.69399" lon="0.98369">
        <ele>148.23</ele>
        <time>2015-02-22T10:29:08Z</time>
      </trkpt>
      <trkpt lat="43.6941" lon="0.98386">
        <ele>146.79</ele>
        <time>2015-02-22T10:29:24Z</time>
      </trkpt>
      <trkpt lat="43.69419" lon="0.98404">
        <ele>145.68</ele>
        <time>2015-02-22T10:29:39Z</time>
      </trkpt>
      <trkpt lat="43.69421" lon="0.98415">
        <ele>145.59</ele>
        <time>2015-02-22T10:29:47Z</time>
      </trkpt>
      <trkpt lat="43.69425" lon="0.98436">
        <ele>145.42</ele>
        <time>2015-02-22T10:30:02Z</time>
      </trkpt>
      <trkpt lat="43.69436" lon="0.98454">
        <ele>144.93</ele>
        <time>2015-02-22T10:30:18Z</time>
      </trkpt>
      <trkpt lat="43.6945" lon="0.98467">
        <ele>144.24</ele>
        <time>2015-02-22T10:30:35Z</time>
      </trkpt>
      <trkpt lat="43.69461" lon="0.98483">
        <ele>144.55</ele>
        <time>2015-02-22T10:30:54Z</time>
      </trkpt>
      <trkpt lat="43.69472" lon="0.98493">
        <ele>144.94</ele>
        <time>2015-02-22T10:31:09Z</time>
      </trkpt>
      <trkpt lat="43.69481" lon="0.98506">
        <ele>145.44</ele>
        <time>2015-02-22T10:31:23Z</time>
      </trkpt>
      <trkpt lat="43.69484" lon="0.9851">
        <ele>145.66</ele>
        <time>2015-02-22T10:31:28Z</time>
      </trkpt>
      <trkpt lat="43.69496" lon="0.98526">
        <ele>146.1</ele>
        <time>2015-02-22T10:31:44Z</time>
      </trkpt>
      <trkpt lat="43.69506" lon="0.98545">
        <ele>146.09</ele>
        <time>2015-02-22T10:32:01Z</time>
      </trkpt>
      <trkpt lat="43.69513" lon="0.98557">
        <ele>146.4</ele>
        <time>2015-02-22T10:32:20Z</time>
      </trkpt>
      <trkpt lat="43.69521" lon="0.98572">
        <ele>147.46</ele>
        <time>2015-02-22T10:32:41Z</time>
      </trkpt>
      <trkpt lat="43.69531" lon="0.98591">
        <ele>147.76</ele>
        <time>2015-02-22T10:33:01Z</time>
      </trkpt>
      <trkpt lat="43.69534" lon="0.98601">
        <ele>147.96</ele>
        <time>2015-02-22T10:33:19Z</time>
      </trkpt>
      <trkpt lat="43.69544" lon="0.9862">
        <ele>148.53</ele>
        <time>2015-02-22T10:33:40Z</time>
      </trkpt>
      <trkpt lat="43.69559" lon="0.98639">
        <ele>149.07</ele>
        <time>2015-02-22T10:33:58Z</time>
      </trkpt>
      <trkpt lat="43.69569" lon="0.98654">
        <ele>150.11</ele>
        <time>2015-02-22T10:34:13Z</time>
      </trkpt>
      <trkpt lat="43.69578" lon="0.98671">
        <ele>150.86</ele>
        <time>2015-02-22T10:34:28Z</time>
      </trkpt>
      <trkpt lat="43.69584" lon="0.98679">
        <ele>151.19</ele>
        <time>2015-02-22T10:34:36Z</time>
      </trkpt>
      <trkpt lat="43.69587" lon="0.987">
        <ele>151.78</ele>
        <time>2015-02-22T10:34:51Z</time>
      </trkpt>
      <trkpt lat="43.69591" lon="0.98726">
        <ele>152.59</ele>
        <time>2015-02-22T10:35:10Z</time>
      </trkpt>
      <trkpt lat="43.69595" lon="0.98735">
        <ele>153.07</ele>
        <time>2015-02-22T10:35:19Z</time>
      </trkpt>
      <trkpt lat="43.69596" lon="0.98761">
        <ele>154.04</ele>
        <time>2015-02-22T10:35:36Z</time>
      </trkpt>
      <trkpt lat="43.69597" lon="0.98786">
        <ele>154.61</ele>
        <time>2015-02-22T10:35:51Z</time>
      </trkpt>
      <trkpt lat="43.69598" lon="0.98811">
        <ele>155.23</ele>
        <time>2015-02-22T10:36:06Z</time>
      </trkpt>
      <trkpt lat="43.69599" lon="0.98841">
        <ele>155.95</ele>
        <time>2015-02-22T10:36:23Z</time>
      </trkpt>
      <trkpt lat="43.696" lon="0.98852">
        <ele>156.01</ele>
        <time>2015-02-22T10:36:41Z</time>
      </trkpt>
      <trkpt lat="43.69603" lon="0.98866">
        <ele>156.39</ele>
        <time>2015-02-22T10:37:01Z</time>
      </trkpt>
      <trkpt lat="43.696" lon="0.98883">
        <ele>156.58</ele>
        <time>2015-02-22T10:37:19Z</time>
      </trkpt>
      <trkpt lat="43.69597" lon="0.98896">
        <ele>156.98</ele>
        <time>2015-02-22T10:37:39Z</time>
      </trkpt>
      <trkpt lat="43.69595" lon="0.98913">
        <ele>157.63</ele>
        <time>2015-02-22T10:37:58Z</time>
      </trkpt>
      <trkpt lat="43.69594" lon="0.9893">
        <ele>157.7</ele>
        <time>2015-02-22T10:38:15Z</time>
      </trkpt>
      <trkpt lat="43.69594" lon="0.98945">
        <ele>158.21</ele>
        <time>2015-02-22T10:38:29Z</time>
      </trkpt>
      <trkpt lat="43.69591" lon="0.98966">
        <ele>158.17</ele>
        <time>2015-02-22T10:38:49Z</time>
      </trkpt>
      <trkpt lat="43.69589" lon="0.98986">
        <ele>158.91</ele>
        <time>2015-02-22T10:39:10Z</time>
      </trkpt>
      <trkpt lat="43.69585" lon="0.99015">
        <ele>159.66</ele>
        <time>2015-02-22T10:39:33Z</time>
      </trkpt>
      <trkpt lat="43.69583" lon="0.99042">
        <ele>160.34</ele>
        <time>2015-02-22T10:39:51Z</time>
      </trkpt>
      <trkpt lat="43.69582" lon="0.99064">
        <ele>161.3</ele>
        <time>2015-02-22T10:40:08Z</time>
      </trkpt>
      <trkpt lat="43.6958" lon="0.99089">
        <ele>162.19</ele>
        <time>2015-02-22T10:40:23Z</time>
      </trkpt>
      <trkpt lat="43.69578" lon="0.99113">
        <ele>162.41</ele>
        <time>2015-02-22T10:40:42Z</time>
      </trkpt>
      <trkpt lat="43.69578" lon="0.99133">
        <ele>162.83</ele>
        <time>2015-02-22T10:40:59Z</time>
      </trkpt>
      <trkpt lat="43.69576" lon="0.99156">
        <ele>163.53</ele>
        <time>2015-02-22T10:41:15Z</time>
      </trkpt>
      <trkpt lat="43.69575" lon="0.99179">
        <ele>163.76</ele>
        <time>2015-02-22T10:41:32Z</time>
      </trkpt>
      <trkpt lat="43.6958" lon="0.99198">
        <ele>164.14</ele>
        <time>2015-02-22T10:41:48Z</time>
      </trkpt>
      <trkpt lat="43.69583" lon="0.99204">
        <ele>164.81</ele>
        <time>2015-02-22T10:42:03Z</time>
      </trkpt>
      <trkpt lat="43.69585" lon="0.99226">
        <ele>165.25</ele>
        <time>2015-02-22T10:42:18Z</time>
      </trkpt>
      <trkpt lat="43.69588" lon="0.99252">
        <ele>166.05</ele>
        <time>2015-02-22T10:42:35Z</time>
      </trkpt>
      <trkpt lat="43.6959" lon="0.99274">
        <ele>166.97</ele>
        <time>2015-02-22T10:42:53Z</time>
      </trkpt>
      <trkpt lat="43.69593" lon="0.99297">
        <ele>167.7</ele>
        <time>2015-02-22T10:43:09Z</time>
      </trkpt>
      <trkpt lat="43.69594" lon="0.99312">
        <ele>167.94</ele>
        <time>2015-02-22T10:43:17Z</time>
      </trkpt>
      <trkpt lat="43.69595" lon="0.99336">
        <ele>168.45</ele>
        <time>2015-02-22T10:43:33Z</time>
      </trkpt>
      <trkpt lat="43.69602" lon="0.99362">
        <ele>168.67</ele>
        <time>2015-02-22T10:43:50Z</time>
      </trkpt>
      <trkpt lat="43.69605" lon="0.9938">
        <ele>168.68</ele>
        <time>2015-02-22T10:44:04Z</time>
      </trkpt>
      <trkpt lat="43.69608" lon="0.99387">
        <ele>168.99</ele>
        <time>2015-02-22T10:44:12Z</time>
      </trkpt>
      <trkpt lat="43.69609" lon="0.99391">
        <ele>169</ele>
        <time>2015-02-22T10:44:14Z</time>
      </trkpt>
      <trkpt lat="43.69614" lon="0.99421">
        <ele>169.32</ele>
        <time>2015-02-22T10:44:33Z</time>
      </trkpt>
      <trkpt lat="43.69618" lon="0.99447">
        <ele>169.34</ele>
        <time>2015-02-22T10:44:50Z</time>
      </trkpt>
      <trkpt lat="43.69624" lon="0.99478">
        <ele>169.56</ele>
        <time>2015-02-22T10:45:10Z</time>
      </trkpt>
      <trkpt lat="43.6963" lon="0.99508">
        <ele>170.7</ele>
        <time>2015-02-22T10:45:31Z</time>
      </trkpt>
      <trkpt lat="43.69637" lon="0.99541">
        <ele>171.77</ele>
        <time>2015-02-22T10:45:54Z</time>
      </trkpt>
      <trkpt lat="43.69643" lon="0.99568">
        <ele>172.74</ele>
        <time>2015-02-22T10:46:13Z</time>
      </trkpt>
      <trkpt lat="43.69644" lon="0.99572">
        <ele>172.87</ele>
        <time>2015-02-22T10:46:16Z</time>
      </trkpt>
      <trkpt lat="43.69648" lon="0.99595">
        <ele>173.26</ele>
        <time>2015-02-22T10:46:32Z</time>
      </trkpt>
      <trkpt lat="43.69649" lon="0.99605">
        <ele>173.42</ele>
        <time>2015-02-22T10:46:38Z</time>
      </trkpt>
      <trkpt lat="43.69654" lon="0.99639">
        <ele>173.88</ele>
        <time>2015-02-22T10:47:00Z</time>
      </trkpt>
      <trkpt lat="43.69659" lon="0.99662">
        <ele>174.35</ele>
        <time>2015-02-22T10:47:18Z</time>
      </trkpt>
      <trkpt lat="43.69665" lon="0.99691">
        <ele>175.54</ele>
        <time>2015-02-22T10:47:37Z</time>
      </trkpt>
      <trkpt lat="43.69663" lon="0.9972">
        <ele>176.95</ele>
        <time>2015-02-22T10:47:56Z</time>
      </trkpt>
      <trkpt lat="43.69662" lon="0.99745">
        <ele>179.54</ele>
        <time>2015-02-22T10:48:16Z</time>
      </trkpt>
      <trkpt lat="43.69665" lon="0.99754">
        <ele>181.35</ele>
        <time>2015-02-22T10:48:41Z</time>
      </trkpt>
      <trkpt lat="43.69665" lon="0.99752">
        <ele>180.95</ele>
        <time>2015-02-22T10:49:09Z</time>
      </trkpt>
      <trkpt lat="43.69667" lon="0.99749">
        <ele>180.72</ele>
        <time>2015-02-22T10:49:49Z</time>
      </trkpt>
      <trkpt lat="43.69672" lon="0.9975">
        <ele>180.99</ele>
        <time>2015-02-22T10:50:24Z</time>
      </trkpt>
      <trkpt lat="43.69669" lon="0.9975">
        <ele>181.26</ele>
        <time>2015-02-22T10:50:57Z</time>
      </trkpt>
      <trkpt lat="43.69669" lon="0.99751">
        <ele>181.24</ele>
        <time>2015-02-22T10:51:34Z</time>
      </trkpt>
      <trkpt lat="43.69668" lon="0.99753">
        <ele>181.23</ele>
        <time>2015-02-22T10:52:06Z</time>
      </trkpt>
      <trkpt lat="43.69666" lon="0.99753">
        <ele>181.1</ele>
        <time>2015-02-22T10:52:37Z</time>
      </trkpt>
      <trkpt lat="43.69662" lon="0.99753">
        <ele>180.99</ele>
        <time>2015-02-22T10:53:02Z</time>
      </trkpt>
      <trkpt lat="43.69651" lon="0.99752">
        <ele>181.59</ele>
        <time>2015-02-22T10:53:21Z</time>
      </trkpt>
      <trkpt lat="43.69633" lon="0.99748">
        <ele>181.33</ele>
        <time>2015-02-22T10:53:39Z</time>
      </trkpt>
      <trkpt lat="43.69631" lon="0.99748">
        <ele>181.37</ele>
        <time>2015-02-22T10:53:41Z</time>
      </trkpt>
      <trkpt lat="43.69614" lon="0.99744">
        <ele>182</ele>
        <time>2015-02-22T10:54:01Z</time>
      </trkpt>
      <trkpt lat="43.69598" lon="0.99743">
        <ele>181.92</ele>
        <time>2015-02-22T10:54:21Z</time>
      </trkpt>
      <trkpt lat="43.6958" lon="0.99742">
        <ele>182.05</ele>
        <time>2015-02-22T10:54:39Z</time>
      </trkpt>
      <trkpt lat="43.6956" lon="0.99737">
        <ele>182.37</ele>
        <time>2015-02-22T10:54:59Z</time>
      </trkpt>
      <trkpt lat="43.6954" lon="0.99729">
        <ele>182.49</ele>
        <time>2015-02-22T10:55:19Z</time>
      </trkpt>
      <trkpt lat="43.69537" lon="0.99729">
        <ele>182.5</ele>
        <time>2015-02-22T10:55:23Z</time>
      </trkpt>
      <trkpt lat="43.69514" lon="0.99721">
        <ele>182.9</ele>
        <time>2015-02-22T10:55:43Z</time>
      </trkpt>
      <trkpt lat="43.69496" lon="0.99715">
        <ele>183.27</ele>
        <time>2015-02-22T10:56:00Z</time>
      </trkpt>
      <trkpt lat="43.6948" lon="0.99711">
        <ele>183.13</ele>
        <time>2015-02-22T10:56:16Z</time>
      </trkpt>
      <trkpt lat="43.69464" lon="0.99706">
        <ele>183.46</ele>
        <time>2015-02-22T10:56:31Z</time>
      </trkpt>
      <trkpt lat="43.69462" lon="0.99706">
        <ele>183.41</ele>
        <time>2015-02-22T10:56:33Z</time>
      </trkpt>
      <trkpt lat="43.69448" lon="0.99704">
        <ele>183.16</ele>
        <time>2015-02-22T10:56:46Z</time>
      </trkpt>
      <trkpt lat="43.69432" lon="0.99704">
        <ele>183.35</ele>
        <time>2015-02-22T10:57:03Z</time>
      </trkpt>
      <trkpt lat="43.69413" lon="0.99704">
        <ele>182.76</ele>
        <time>2015-02-22T10:57:21Z</time>
      </trkpt>
      <trkpt lat="43.69396" lon="0.99693">
        <ele>182.94</ele>
        <time>2015-02-22T10:57:39Z</time>
      </trkpt>
      <trkpt lat="43.69384" lon="0.9968">
        <ele>184.03</ele>
        <time>2015-02-22T10:57:55Z</time>
      </trkpt>
      <trkpt lat="43.69374" lon="0.99691">
        <ele>184.53</ele>
        <time>2015-02-22T10:58:08Z</time>
      </trkpt>
      <trkpt lat="43.69372" lon="0.99693">
        <ele>184.47</ele>
        <time>2015-02-22T10:58:10Z</time>
      </trkpt>
      <trkpt lat="43.69355" lon="0.99701">
        <ele>183.13</ele>
        <time>2015-02-22T10:58:27Z</time>
      </trkpt>
      <trkpt lat="43.69338" lon="0.99709">
        <ele>181.51</ele>
        <time>2015-02-22T10:58:43Z</time>
      </trkpt>
      <trkpt lat="43.69322" lon="0.99723">
        <ele>180.24</ele>
        <time>2015-02-22T10:58:59Z</time>
      </trkpt>
      <trkpt lat="43.69309" lon="0.99734">
        <ele>178.93</ele>
        <time>2015-02-22T10:59:13Z</time>
      </trkpt>
      <trkpt lat="43.69293" lon="0.99742">
        <ele>177.3</ele>
        <time>2015-02-22T10:59:29Z</time>
      </trkpt>
      <trkpt lat="43.69277" lon="0.99755">
        <ele>175.97</ele>
        <time>2015-02-22T10:59:46Z</time>
      </trkpt>
      <trkpt lat="43.6926" lon="0.99767">
        <ele>174.35</ele>
        <time>2015-02-22T11:00:02Z</time>
      </trkpt>
      <trkpt lat="43.69241" lon="0.99781">
        <ele>172.88</ele>
        <time>2015-02-22T11:00:20Z</time>
      </trkpt>
      <trkpt lat="43.69225" lon="0.99795">
        <ele>171.75</ele>
        <time>2015-02-22T11:00:38Z</time>
      </trkpt>
      <trkpt lat="43.6921" lon="0.99802">
        <ele>171.01</ele>
        <time>2015-02-22T11:00:55Z</time>
      </trkpt>
      <trkpt lat="43.69205" lon="0.99801">
        <ele>170.42</ele>
        <time>2015-02-22T11:01:01Z</time>
      </trkpt>
      <trkpt lat="43.69194" lon="0.99801">
        <ele>168.96</ele>
        <time>2015-02-22T11:01:13Z</time>
      </trkpt>
      <trkpt lat="43.69189" lon="0.99803">
        <ele>168.52</ele>
        <time>2015-02-22T11:01:17Z</time>
      </trkpt>
      <trkpt lat="43.69175" lon="0.9981">
        <ele>166.5</ele>
        <time>2015-02-22T11:01:30Z</time>
      </trkpt>
      <trkpt lat="43.69171" lon="0.99812">
        <ele>166.05</ele>
        <time>2015-02-22T11:01:34Z</time>
      </trkpt>
      <trkpt lat="43.6916" lon="0.99836">
        <ele>165.22</ele>
        <time>2015-02-22T11:01:52Z</time>
      </trkpt>
      <trkpt lat="43.69159" lon="0.99851">
        <ele>165.66</ele>
        <time>2015-02-22T11:02:05Z</time>
      </trkpt>
      <trkpt lat="43.69166" lon="0.99863">
        <ele>165.47</ele>
        <time>2015-02-22T11:02:20Z</time>
      </trkpt>
      <trkpt lat="43.69166" lon="0.99868">
        <ele>165.59</ele>
        <time>2015-02-22T11:02:30Z</time>
      </trkpt>
      <trkpt lat="43.69175" lon="0.99882">
        <ele>165.99</ele>
        <time>2015-02-22T11:02:48Z</time>
      </trkpt>
      <trkpt lat="43.69185" lon="0.99894">
        <ele>166.77</ele>
        <time>2015-02-22T11:03:06Z</time>
      </trkpt>
      <trkpt lat="43.69191" lon="0.999">
        <ele>167.14</ele>
        <time>2015-02-22T11:03:28Z</time>
      </trkpt>
      <trkpt lat="43.69197" lon="0.99911">
        <ele>165.59</ele>
        <time>2015-02-22T11:03:45Z</time>
      </trkpt>
      <trkpt lat="43.69204" lon="0.99921">
        <ele>163.86</ele>
        <time>2015-02-22T11:04:06Z</time>
      </trkpt>
      <trkpt lat="43.69203" lon="0.99926">
        <ele>163.46</ele>
        <time>2015-02-22T11:04:28Z</time>
      </trkpt>
      <trkpt lat="43.69202" lon="0.99927">
        <ele>163.32</ele>
        <time>2015-02-22T11:04:30Z</time>
      </trkpt>
      <trkpt lat="43.69199" lon="0.99928">
        <ele>163.09</ele>
        <time>2015-02-22T11:04:32Z</time>
      </trkpt>
      <trkpt lat="43.69197" lon="0.99931">
        <ele>162.54</ele>
        <time>2015-02-22T11:04:35Z</time>
      </trkpt>
      <trkpt lat="43.692" lon="0.99941">
        <ele>160.75</ele>
        <time>2015-02-22T11:04:54Z</time>
      </trkpt>
      <trkpt lat="43.692" lon="0.99944">
        <ele>160.48</ele>
        <time>2015-02-22T11:05:06Z</time>
      </trkpt>
      <trkpt lat="43.69206" lon="0.99947">
        <ele>160.59</ele>
        <time>2015-02-22T11:05:12Z</time>
      </trkpt>
      <trkpt lat="43.69221" lon="0.99958">
        <ele>161.73</ele>
        <time>2015-02-22T11:05:27Z</time>
      </trkpt>
      <trkpt lat="43.69243" lon="0.99974">
        <ele>162.58</ele>
        <time>2015-02-22T11:05:48Z</time>
      </trkpt>
      <trkpt lat="43.6926" lon="0.99988">
        <ele>163.57</ele>
        <time>2015-02-22T11:06:05Z</time>
      </trkpt>
      <trkpt lat="43.69262" lon="0.9999">
        <ele>163.72</ele>
        <time>2015-02-22T11:06:09Z</time>
      </trkpt>
      <trkpt lat="43.69269" lon="0.99997">
        <ele>163.95</ele>
        <time>2015-02-22T11:06:18Z</time>
      </trkpt>
      <trkpt lat="43.69271" lon="1">
        <ele>163.97</ele>
        <time>2015-02-22T11:06:20Z</time>
      </trkpt>
      <trkpt lat="43.69274" lon="1.00004">
        <ele>164.48</ele>
        <time>2015-02-22T11:06:27Z</time>
      </trkpt>
      <trkpt lat="43.69276" lon="1.00006">
        <ele>164.56</ele>
        <time>2015-02-22T11:06:29Z</time>
      </trkpt>
      <trkpt lat="43.69292" lon="1.00021">
        <ele>165.27</ele>
        <time>2015-02-22T11:06:47Z</time>
      </trkpt>
      <trkpt lat="43.69301" lon="1.00029">
        <ele>166.22</ele>
        <time>2015-02-22T11:07:04Z</time>
      </trkpt>
      <trkpt lat="43.69304" lon="1.00028">
        <ele>166.39</ele>
        <time>2015-02-22T11:07:36Z</time>
      </trkpt>
      <trkpt lat="43.69314" lon="1.00035">
        <ele>166.47</ele>
        <time>2015-02-22T11:07:55Z</time>
      </trkpt>
      <trkpt lat="43.69323" lon="1.00049">
        <ele>167.5</ele>
        <time>2015-02-22T11:08:12Z</time>
      </trkpt>
      <trkpt lat="43.69319" lon="1.00066">
        <ele>165.9</ele>
        <time>2015-02-22T11:08:30Z</time>
      </trkpt>
      <trkpt lat="43.69313" lon="1.0008">
        <ele>163.84</ele>
        <time>2015-02-22T11:08:50Z</time>
      </trkpt>
      <trkpt lat="43.69305" lon="1.00084">
        <ele>161.74</ele>
        <time>2015-02-22T11:09:11Z</time>
      </trkpt>
      <trkpt lat="43.69303" lon="1.00087">
        <ele>161.74</ele>
        <time>2015-02-22T11:09:41Z</time>
      </trkpt>
      <trkpt lat="43.69306" lon="1.00089">
        <ele>161.8</ele>
        <time>2015-02-22T11:10:03Z</time>
      </trkpt>
      <trkpt lat="43.69303" lon="1.00086">
        <ele>161.94</ele>
        <time>2015-02-22T11:10:37Z</time>
      </trkpt>
      <trkpt lat="43.69302" lon="1.00086">
        <ele>161.14</ele>
        <time>2015-02-22T11:10:56Z</time>
      </trkpt>
      <trkpt lat="43.69303" lon="1.00087">
        <ele>161.04</ele>
        <time>2015-02-22T11:11:36Z</time>
      </trkpt>
      <trkpt lat="43.69304" lon="1.00085">
        <ele>161.22</ele>
        <time>2015-02-22T11:12:08Z</time>
      </trkpt>
      <trkpt lat="43.69305" lon="1.00086">
        <ele>160.54</ele>
        <time>2015-02-22T11:12:30Z</time>
      </trkpt>
      <trkpt lat="43.69305" lon="1.00084">
        <ele>160.73</ele>
        <time>2015-02-22T11:12:54Z</time>
      </trkpt>
      <trkpt lat="43.69305" lon="1.00084">
        <ele>160.87</ele>
        <time>2015-02-22T11:13:35Z</time>
      </trkpt>
      <trkpt lat="43.69304" lon="1.00083">
        <ele>161.42</ele>
        <time>2015-02-22T11:14:00Z</time>
      </trkpt>
      <trkpt lat="43.69306" lon="1.00084">
        <ele>160.98</ele>
        <time>2015-02-22T11:14:44Z</time>
      </trkpt>
      <trkpt lat="43.69306" lon="1.00086">
        <ele>160.74</ele>
        <time>2015-02-22T11:15:48Z</time>
      </trkpt>
      <trkpt lat="43.69305" lon="1.00085">
        <ele>160.53</ele>
        <time>2015-02-22T11:16:35Z</time>
      </trkpt>
      <trkpt lat="43.69304" lon="1.00084">
        <ele>160.8</ele>
        <time>2015-02-22T11:17:28Z</time>
      </trkpt>
      <trkpt lat="43.69305" lon="1.00083">
        <ele>161.02</ele>
        <time>2015-02-22T11:18:17Z</time>
      </trkpt>
      <trkpt lat="43.69306" lon="1.00083">
        <ele>161.21</ele>
        <time>2015-02-22T11:19:15Z</time>
      </trkpt>
      <trkpt lat="43.69306" lon="1.00082">
        <ele>161</ele>
        <time>2015-02-22T11:20:08Z</time>
      </trkpt>
      <trkpt lat="43.69305" lon="1.00083">
        <ele>160.9</ele>
        <time>2015-02-22T11:21:06Z</time>
      </trkpt>
      <trkpt lat="43.69306" lon="1.00085">
        <ele>160.87</ele>
        <time>2015-02-22T11:22:01Z</time>
      </trkpt>
      <trkpt lat="43.69306" lon="1.00085">
        <ele>160.95</ele>
        <time>2015-02-22T11:22:59Z</time>
      </trkpt>
      <trkpt lat="43.69306" lon="1.00085">
        <ele>160.81</ele>
        <time>2015-02-22T11:23:50Z</time>
      </trkpt>
      <trkpt lat="43.69307" lon="1.00084">
        <ele>160.73</ele>
        <time>2015-02-22T11:24:45Z</time>
      </trkpt>
      <trkpt lat="43.69306" lon="1.00082">
        <ele>160.73</ele>
        <time>2015-02-22T11:25:38Z</time>
      </trkpt>
      <trkpt lat="43.69306" lon="1.00082">
        <ele>160.56</ele>
        <time>2015-02-22T11:26:31Z</time>
      </trkpt>
      <trkpt lat="43.69307" lon="1.00084">
        <ele>160.01</ele>
        <time>2015-02-22T11:28:03Z</time>
      </trkpt>
      <trkpt lat="43.69306" lon="1.00083">
        <ele>159.81</ele>
        <time>2015-02-22T11:28:53Z</time>
      </trkpt>
      <trkpt lat="43.69306" lon="1.00083">
        <ele>160.03</ele>
        <time>2015-02-22T11:30:03Z</time>
      </trkpt>
      <trkpt lat="43.69306" lon="1.00083">
        <ele>160.04</ele>
        <time>2015-02-22T11:31:37Z</time>
      </trkpt>
      <trkpt lat="43.69307" lon="1.00083">
        <ele>160.1</ele>
        <time>2015-02-22T11:33:05Z</time>
      </trkpt>
      <trkpt lat="43.69306" lon="1.00082">
        <ele>159.64</ele>
        <time>2015-02-22T11:34:03Z</time>
      </trkpt>
      <trkpt lat="43.69306" lon="1.00082">
        <ele>159.9</ele>
        <time>2015-02-22T11:34:59Z</time>
      </trkpt>
      <trkpt lat="43.69305" lon="1.00083">
        <ele>159.9</ele>
        <time>2015-02-22T11:35:43Z</time>
      </trkpt>
      <trkpt lat="43.69305" lon="1.00083">
        <ele>159.72</ele>
        <time>2015-02-22T11:37:08Z</time>
      </trkpt>
      <trkpt lat="43.69305" lon="1.00083">
        <ele>159.64</ele>
        <time>2015-02-22T11:38:59Z</time>
      </trkpt>
      <trkpt lat="43.69305" lon="1.00083">
        <ele>159.32</ele>
        <time>2015-02-22T11:39:42Z</time>
      </trkpt>
      <trkpt lat="43.69306" lon="1.00083">
        <ele>159.49</ele>
        <time>2015-02-22T11:40:50Z</time>
      </trkpt>
      <trkpt lat="43.69305" lon="1.00084">
        <ele>159.8</ele>
        <time>2015-02-22T11:41:44Z</time>
      </trkpt>
      <trkpt lat="43.69304" lon="1.00085">
        <ele>159.34</ele>
        <time>2015-02-22T11:42:40Z</time>
      </trkpt>
      <trkpt lat="43.69305" lon="1.00084">
        <ele>159.24</ele>
        <time>2015-02-22T11:43:27Z</time>
      </trkpt>
      <trkpt lat="43.69304" lon="1.00084">
        <ele>159.42</ele>
        <time>2015-02-22T11:44:17Z</time>
      </trkpt>
      <trkpt lat="43.69304" lon="1.00084">
        <ele>159.32</ele>
        <time>2015-02-22T11:45:17Z</time>
      </trkpt>
      <trkpt lat="43.69304" lon="1.00084">
        <ele>159.31</ele>
        <time>2015-02-22T11:46:17Z</time>
      </trkpt>
      <trkpt lat="43.69305" lon="1.00083">
        <ele>159.41</ele>
        <time>2015-02-22T11:47:41Z</time>
      </trkpt>
      <trkpt lat="43.69306" lon="1.00083">
        <ele>159.48</ele>
        <time>2015-02-22T11:48:38Z</time>
      </trkpt>
      <trkpt lat="43.69306" lon="1.00085">
        <ele>159.33</ele>
        <time>2015-02-22T11:49:57Z</time>
      </trkpt>
      <trkpt lat="43.69305" lon="1.00084">
        <ele>159.61</ele>
        <time>2015-02-22T11:51:03Z</time>
      </trkpt>
      <trkpt lat="43.69306" lon="1.00084">
        <ele>159.8</ele>
        <time>2015-02-22T11:51:52Z</time>
      </trkpt>
      <trkpt lat="43.69306" lon="1.00087">
        <ele>159.45</ele>
        <time>2015-02-22T11:52:42Z</time>
      </trkpt>
      <trkpt lat="43.69307" lon="1.00086">
        <ele>159.6</ele>
        <time>2015-02-22T11:53:46Z</time>
      </trkpt>
      <trkpt lat="43.69306" lon="1.00084">
        <ele>159.36</ele>
        <time>2015-02-22T11:54:57Z</time>
      </trkpt>
      <trkpt lat="43.69306" lon="1.00087">
        <ele>159.57</ele>
        <time>2015-02-22T11:56:31Z</time>
      </trkpt>
      <trkpt lat="43.69304" lon="1.00085">
        <ele>159.66</ele>
        <time>2015-02-22T11:57:04Z</time>
      </trkpt>
      <trkpt lat="43.69304" lon="1.00083">
        <ele>159.89</ele>
        <time>2015-02-22T11:57:39Z</time>
      </trkpt>
      <trkpt lat="43.69305" lon="1.00082">
        <ele>159.79</ele>
        <time>2015-02-22T11:58:07Z</time>
      </trkpt>
      <trkpt lat="43.69305" lon="1.00081">
        <ele>159.79</ele>
        <time>2015-02-22T11:58:42Z</time>
      </trkpt>
      <trkpt lat="43.69304" lon="1.00082">
        <ele>160.38</ele>
        <time>2015-02-22T11:59:18Z</time>
      </trkpt>
      <trkpt lat="43.69304" lon="1.00082">
        <ele>159.97</ele>
        <time>2015-02-22T11:59:44Z</time>
      </trkpt>
      <trkpt lat="43.69303" lon="1.00083">
        <ele>160.05</ele>
        <time>2015-02-22T12:00:48Z</time>
      </trkpt>
      <trkpt lat="43.69302" lon="1.00083">
        <ele>160.25</ele>
        <time>2015-02-22T12:01:29Z</time>
      </trkpt>
      <trkpt lat="43.69304" lon="1.00083">
        <ele>160.43</ele>
        <time>2015-02-22T12:02:10Z</time>
      </trkpt>
      <trkpt lat="43.69305" lon="1.00084">
        <ele>160.36</ele>
        <time>2015-02-22T12:02:58Z</time>
      </trkpt>
      <trkpt lat="43.69304" lon="1.00084">
        <ele>160.81</ele>
        <time>2015-02-22T12:03:20Z</time>
      </trkpt>
      <trkpt lat="43.69305" lon="1.00082">
        <ele>161.34</ele>
        <time>2015-02-22T12:03:44Z</time>
      </trkpt>
      <trkpt lat="43.69305" lon="1.00082">
        <ele>161.54</ele>
        <time>2015-02-22T12:04:17Z</time>
      </trkpt>
      <trkpt lat="43.69305" lon="1.00084">
        <ele>161.18</ele>
        <time>2015-02-22T12:04:44Z</time>
      </trkpt>
      <trkpt lat="43.69305" lon="1.00085">
        <ele>161.26</ele>
        <time>2015-02-22T12:05:11Z</time>
      </trkpt>
      <trkpt lat="43.69304" lon="1.00085">
        <ele>161.43</ele>
        <time>2015-02-22T12:05:35Z</time>
      </trkpt>
      <trkpt lat="43.69304" lon="1.00086">
        <ele>161.03</ele>
        <time>2015-02-22T12:06:04Z</time>
      </trkpt>
      <trkpt lat="43.69303" lon="1.00088">
        <ele>161.19</ele>
        <time>2015-02-22T12:06:28Z</time>
      </trkpt>
      <trkpt lat="43.69303" lon="1.00096">
        <ele>160.3</ele>
        <time>2015-02-22T12:06:44Z</time>
      </trkpt>
      <trkpt lat="43.69306" lon="1.00099">
        <ele>159.74</ele>
        <time>2015-02-22T12:07:06Z</time>
      </trkpt>
      <trkpt lat="43.69309" lon="1.00101">
        <ele>159.76</ele>
        <time>2015-02-22T12:07:33Z</time>
      </trkpt>
      <trkpt lat="43.69316" lon="1.00107">
        <ele>159.71</ele>
        <time>2015-02-22T12:07:49Z</time>
      </trkpt>
      <trkpt lat="43.69328" lon="1.0011">
        <ele>160.07</ele>
        <time>2015-02-22T12:08:05Z</time>
      </trkpt>
      <trkpt lat="43.69337" lon="1.00107">
        <ele>162.05</ele>
        <time>2015-02-22T12:08:23Z</time>
      </trkpt>
      <trkpt lat="43.69351" lon="1.00107">
        <ele>162.74</ele>
        <time>2015-02-22T12:08:42Z</time>
      </trkpt>
      <trkpt lat="43.69363" lon="1.00111">
        <ele>162.11</ele>
        <time>2015-02-22T12:09:00Z</time>
      </trkpt>
      <trkpt lat="43.69365" lon="1.0011">
        <ele>162.05</ele>
        <time>2015-02-22T12:09:02Z</time>
      </trkpt>
      <trkpt lat="43.69381" lon="1.00113">
        <ele>161.97</ele>
        <time>2015-02-22T12:09:17Z</time>
      </trkpt>
      <trkpt lat="43.69395" lon="1.00116">
        <ele>161.8</ele>
        <time>2015-02-22T12:09:31Z</time>
      </trkpt>
      <trkpt lat="43.69411" lon="1.0012">
        <ele>161.84</ele>
        <time>2015-02-22T12:09:49Z</time>
      </trkpt>
      <trkpt lat="43.69426" lon="1.00126">
        <ele>161.58</ele>
        <time>2015-02-22T12:10:07Z</time>
      </trkpt>
      <trkpt lat="43.6944" lon="1.00132">
        <ele>162.01</ele>
        <time>2015-02-22T12:10:25Z</time>
      </trkpt>
      <trkpt lat="43.69444" lon="1.00146">
        <ele>162.15</ele>
        <time>2015-02-22T12:10:42Z</time>
      </trkpt>
      <trkpt lat="43.69446" lon="1.00152">
        <ele>162.3</ele>
        <time>2015-02-22T12:10:50Z</time>
      </trkpt>
      <trkpt lat="43.69445" lon="1.00176">
        <ele>163.9</ele>
        <time>2015-02-22T12:11:09Z</time>
      </trkpt>
      <trkpt lat="43.69448" lon="1.00196">
        <ele>165.25</ele>
        <time>2015-02-22T12:11:25Z</time>
      </trkpt>
      <trkpt lat="43.69451" lon="1.0022">
        <ele>165.27</ele>
        <time>2015-02-22T12:11:41Z</time>
      </trkpt>
      <trkpt lat="43.69454" lon="1.00246">
        <ele>166.03</ele>
        <time>2015-02-22T12:12:00Z</time>
      </trkpt>
      <trkpt lat="43.69455" lon="1.00268">
        <ele>165</ele>
        <time>2015-02-22T12:12:16Z</time>
      </trkpt>
      <trkpt lat="43.69454" lon="1.00288">
        <ele>163.52</ele>
        <time>2015-02-22T12:12:35Z</time>
      </trkpt>
      <trkpt lat="43.69452" lon="1.00321">
        <ele>163.6</ele>
        <time>2015-02-22T12:12:54Z</time>
      </trkpt>
      <trkpt lat="43.69454" lon="1.00337">
        <ele>164.12</ele>
        <time>2015-02-22T12:13:12Z</time>
      </trkpt>
      <trkpt lat="43.69459" lon="1.00358">
        <ele>165.46</ele>
        <time>2015-02-22T12:13:31Z</time>
      </trkpt>
      <trkpt lat="43.6946" lon="1.00386">
        <ele>164.43</ele>
        <time>2015-02-22T12:13:52Z</time>
      </trkpt>
      <trkpt lat="43.69465" lon="1.0041">
        <ele>163.92</ele>
        <time>2015-02-22T12:14:08Z</time>
      </trkpt>
      <trkpt lat="43.69474" lon="1.00432">
        <ele>165.12</ele>
        <time>2015-02-22T12:14:27Z</time>
      </trkpt>
      <trkpt lat="43.69484" lon="1.0045">
        <ele>165.18</ele>
        <time>2015-02-22T12:14:44Z</time>
      </trkpt>
      <trkpt lat="43.69498" lon="1.00463">
        <ele>163.74</ele>
        <time>2015-02-22T12:15:03Z</time>
      </trkpt>
      <trkpt lat="43.69512" lon="1.0047">
        <ele>163.34</ele>
        <time>2015-02-22T12:15:21Z</time>
      </trkpt>
      <trkpt lat="43.69527" lon="1.00476">
        <ele>162.99</ele>
        <time>2015-02-22T12:15:41Z</time>
      </trkpt>
      <trkpt lat="43.69542" lon="1.00482">
        <ele>163.24</ele>
        <time>2015-02-22T12:16:01Z</time>
      </trkpt>
      <trkpt lat="43.69552" lon="1.0049">
        <ele>162.87</ele>
        <time>2015-02-22T12:16:16Z</time>
      </trkpt>
      <trkpt lat="43.6956" lon="1.00498">
        <ele>162.78</ele>
        <time>2015-02-22T12:16:36Z</time>
      </trkpt>
      <trkpt lat="43.69571" lon="1.00507">
        <ele>162.15</ele>
        <time>2015-02-22T12:16:51Z</time>
      </trkpt>
      <trkpt lat="43.69575" lon="1.00511">
        <ele>162.25</ele>
        <time>2015-02-22T12:16:56Z</time>
      </trkpt>
      <trkpt lat="43.69587" lon="1.00517">
        <ele>163.3</ele>
        <time>2015-02-22T12:17:12Z</time>
      </trkpt>
      <trkpt lat="43.69602" lon="1.00529">
        <ele>163.36</ele>
        <time>2015-02-22T12:17:32Z</time>
      </trkpt>
      <trkpt lat="43.69615" lon="1.00538">
        <ele>162.3</ele>
        <time>2015-02-22T12:17:52Z</time>
      </trkpt>
      <trkpt lat="43.69628" lon="1.00553">
        <ele>162.75</ele>
        <time>2015-02-22T12:18:13Z</time>
      </trkpt>
      <trkpt lat="43.69636" lon="1.00572">
        <ele>163.9</ele>
        <time>2015-02-22T12:18:35Z</time>
      </trkpt>
      <trkpt lat="43.69644" lon="1.00604">
        <ele>164.26</ele>
        <time>2015-02-22T12:18:55Z</time>
      </trkpt>
      <trkpt lat="43.6965" lon="1.00618">
        <ele>165.27</ele>
        <time>2015-02-22T12:19:16Z</time>
      </trkpt>
      <trkpt lat="43.6966" lon="1.00631">
        <ele>164.3</ele>
        <time>2015-02-22T12:19:34Z</time>
      </trkpt>
      <trkpt lat="43.69661" lon="1.00633">
        <ele>164.23</ele>
        <time>2015-02-22T12:20:08Z</time>
      </trkpt>
      <trkpt lat="43.69668" lon="1.0064">
        <ele>164.22</ele>
        <time>2015-02-22T12:20:28Z</time>
      </trkpt>
      <trkpt lat="43.69671" lon="1.00641">
        <ele>164.45</ele>
        <time>2015-02-22T12:20:46Z</time>
      </trkpt>
      <trkpt lat="43.69671" lon="1.00641">
        <ele>164.3</ele>
        <time>2015-02-22T12:21:10Z</time>
      </trkpt>
      <trkpt lat="43.6967" lon="1.00642">
        <ele>164.05</ele>
        <time>2015-02-22T12:21:27Z</time>
      </trkpt>
      <trkpt lat="43.69668" lon="1.00639">
        <ele>164.16</ele>
        <time>2015-02-22T12:21:44Z</time>
      </trkpt>
      <trkpt lat="43.69667" lon="1.00638">
        <ele>164.22</ele>
        <time>2015-02-22T12:22:09Z</time>
      </trkpt>
      <trkpt lat="43.69664" lon="1.00637">
        <ele>164.32</ele>
        <time>2015-02-22T12:22:38Z</time>
      </trkpt>
      <trkpt lat="43.69661" lon="1.00635">
        <ele>164.27</ele>
        <time>2015-02-22T12:22:59Z</time>
      </trkpt>
      <trkpt lat="43.69658" lon="1.0064">
        <ele>163.98</ele>
        <time>2015-02-22T12:23:27Z</time>
      </trkpt>
      <trkpt lat="43.69658" lon="1.00642">
        <ele>164.36</ele>
        <time>2015-02-22T12:23:57Z</time>
      </trkpt>
      <trkpt lat="43.69658" lon="1.00643">
        <ele>164.39</ele>
        <time>2015-02-22T12:24:22Z</time>
      </trkpt>
      <trkpt lat="43.69657" lon="1.00639">
        <ele>164.4</ele>
        <time>2015-02-22T12:24:48Z</time>
      </trkpt>
      <trkpt lat="43.69656" lon="1.00636">
        <ele>164.27</ele>
        <time>2015-02-22T12:25:07Z</time>
      </trkpt>
      <trkpt lat="43.69659" lon="1.0064">
        <ele>164.38</ele>
        <time>2015-02-22T12:25:33Z</time>
      </trkpt>
      <trkpt lat="43.69667" lon="1.00638">
        <ele>164.42</ele>
        <time>2015-02-22T12:25:52Z</time>
      </trkpt>
      <trkpt lat="43.69676" lon="1.00633">
        <ele>164.4</ele>
        <time>2015-02-22T12:26:08Z</time>
      </trkpt>
      <trkpt lat="43.6968" lon="1.00632">
        <ele>164.4</ele>
        <time>2015-02-22T12:26:12Z</time>
      </trkpt>
      <trkpt lat="43.69698" lon="1.00629">
        <ele>164.72</ele>
        <time>2015-02-22T12:26:28Z</time>
      </trkpt>
      <trkpt lat="43.69714" lon="1.00624">
        <ele>164.69</ele>
        <time>2015-02-22T12:26:46Z</time>
      </trkpt>
      <trkpt lat="43.69732" lon="1.00616">
        <ele>165.25</ele>
        <time>2015-02-22T12:27:02Z</time>
      </trkpt>
      <trkpt lat="43.69748" lon="1.0061">
        <ele>166.76</ele>
        <time>2015-02-22T12:27:19Z</time>
      </trkpt>
      <trkpt lat="43.69765" lon="1.00603">
        <ele>168.64</ele>
        <time>2015-02-22T12:27:35Z</time>
      </trkpt>
      <trkpt lat="43.6977" lon="1.006">
        <ele>169.06</ele>
        <time>2015-02-22T12:27:40Z</time>
      </trkpt>
      <trkpt lat="43.69786" lon="1.00589">
        <ele>170.88</ele>
        <time>2015-02-22T12:27:55Z</time>
      </trkpt>
      <trkpt lat="43.69803" lon="1.00575">
        <ele>173.09</ele>
        <time>2015-02-22T12:28:14Z</time>
      </trkpt>
      <trkpt lat="43.69816" lon="1.00563">
        <ele>175.18</ele>
        <time>2015-02-22T12:28:31Z</time>
      </trkpt>
      <trkpt lat="43.69829" lon="1.00547">
        <ele>177.34</ele>
        <time>2015-02-22T12:28:48Z</time>
      </trkpt>
      <trkpt lat="43.69839" lon="1.00532">
        <ele>179.45</ele>
        <time>2015-02-22T12:29:03Z</time>
      </trkpt>
      <trkpt lat="43.69843" lon="1.00525">
        <ele>180.4</ele>
        <time>2015-02-22T12:29:10Z</time>
      </trkpt>
      <trkpt lat="43.69845" lon="1.0052">
        <ele>180.97</ele>
        <time>2015-02-22T12:29:14Z</time>
      </trkpt>
      <trkpt lat="43.69849" lon="1.00509">
        <ele>181.93</ele>
        <time>2015-02-22T12:29:23Z</time>
      </trkpt>
      <trkpt lat="43.69856" lon="1.00482">
        <ele>184.25</ele>
        <time>2015-02-22T12:29:43Z</time>
      </trkpt>
      <trkpt lat="43.69864" lon="1.00454">
        <ele>186.1</ele>
        <time>2015-02-22T12:30:01Z</time>
      </trkpt>
      <trkpt lat="43.69871" lon="1.00425">
        <ele>187.82</ele>
        <time>2015-02-22T12:30:20Z</time>
      </trkpt>
      <trkpt lat="43.6988" lon="1.00393">
        <ele>189.01</ele>
        <time>2015-02-22T12:30:41Z</time>
      </trkpt>
      <trkpt lat="43.69886" lon="1.00365">
        <ele>190.12</ele>
        <time>2015-02-22T12:30:59Z</time>
      </trkpt>
      <trkpt lat="43.69893" lon="1.0034">
        <ele>190.6</ele>
        <time>2015-02-22T12:31:16Z</time>
      </trkpt>
      <trkpt lat="43.69902" lon="1.00306">
        <ele>191.19</ele>
        <time>2015-02-22T12:31:37Z</time>
      </trkpt>
      <trkpt lat="43.69908" lon="1.00284">
        <ele>191.88</ele>
        <time>2015-02-22T12:31:52Z</time>
      </trkpt>
      <trkpt lat="43.69913" lon="1.00261">
        <ele>192.49</ele>
        <time>2015-02-22T12:32:08Z</time>
      </trkpt>
      <trkpt lat="43.69918" lon="1.00232">
        <ele>193.13</ele>
        <time>2015-02-22T12:32:26Z</time>
      </trkpt>
      <trkpt lat="43.69925" lon="1.00192">
        <ele>194.32</ele>
        <time>2015-02-22T12:32:47Z</time>
      </trkpt>
      <trkpt lat="43.6993" lon="1.00159">
        <ele>195.85</ele>
        <time>2015-02-22T12:33:07Z</time>
      </trkpt>
      <trkpt lat="43.69928" lon="1.00153">
        <ele>196.74</ele>
        <time>2015-02-22T12:33:24Z</time>
      </trkpt>
      <trkpt lat="43.69928" lon="1.00152">
        <ele>196.74</ele>
        <time>2015-02-22T12:33:27Z</time>
      </trkpt>
      <trkpt lat="43.69928" lon="1.00146">
        <ele>196.82</ele>
        <time>2015-02-22T12:33:31Z</time>
      </trkpt>
      <trkpt lat="43.69926" lon="1.00118">
        <ele>197.68</ele>
        <time>2015-02-22T12:33:48Z</time>
      </trkpt>
      <trkpt lat="43.69925" lon="1.00107">
        <ele>197.99</ele>
        <time>2015-02-22T12:33:57Z</time>
      </trkpt>
      <trkpt lat="43.69924" lon="1.001">
        <ele>198.3</ele>
        <time>2015-02-22T12:34:01Z</time>
      </trkpt>
      <trkpt lat="43.69921" lon="1.00088">
        <ele>198.64</ele>
        <time>2015-02-22T12:34:14Z</time>
      </trkpt>
      <trkpt lat="43.6992" lon="1.00085">
        <ele>198.63</ele>
        <time>2015-02-22T12:34:16Z</time>
      </trkpt>
      <trkpt lat="43.69916" lon="1.00071">
        <ele>198.51</ele>
        <time>2015-02-22T12:34:25Z</time>
      </trkpt>
      <trkpt lat="43.6991" lon="1.00047">
        <ele>199.13</ele>
        <time>2015-02-22T12:34:40Z</time>
      </trkpt>
      <trkpt lat="43.69909" lon="1.00034">
        <ele>199.49</ele>
        <time>2015-02-22T12:34:55Z</time>
      </trkpt>
      <trkpt lat="43.6991" lon="1.00031">
        <ele>199.65</ele>
        <time>2015-02-22T12:34:57Z</time>
      </trkpt>
      <trkpt lat="43.69914" lon="1.00007">
        <ele>200.14</ele>
        <time>2015-02-22T12:35:12Z</time>
      </trkpt>
      <trkpt lat="43.6992" lon="0.99977">
        <ele>201.26</ele>
        <time>2015-02-22T12:35:31Z</time>
      </trkpt>
      <trkpt lat="43.69925" lon="0.99955">
        <ele>201.44</ele>
        <time>2015-02-22T12:35:46Z</time>
      </trkpt>
      <trkpt lat="43.69929" lon="0.99933">
        <ele>201.73</ele>
        <time>2015-02-22T12:36:02Z</time>
      </trkpt>
      <trkpt lat="43.69932" lon="0.99927">
        <ele>202.21</ele>
        <time>2015-02-22T12:36:20Z</time>
      </trkpt>
      <trkpt lat="43.69938" lon="0.99916">
        <ele>201.97</ele>
        <time>2015-02-22T12:36:37Z</time>
      </trkpt>
      <trkpt lat="43.6994" lon="0.99912">
        <ele>201.92</ele>
        <time>2015-02-22T12:36:57Z</time>
      </trkpt>
      <trkpt lat="43.69942" lon="0.99907">
        <ele>202.33</ele>
        <time>2015-02-22T12:37:18Z</time>
      </trkpt>
      <trkpt lat="43.69943" lon="0.99907">
        <ele>203.18</ele>
        <time>2015-02-22T12:37:55Z</time>
      </trkpt>
      <trkpt lat="43.69942" lon="0.99908">
        <ele>202.64</ele>
        <time>2015-02-22T12:38:30Z</time>
      </trkpt>
      <trkpt lat="43.69944" lon="0.99907">
        <ele>203.13</ele>
        <time>2015-02-22T12:38:53Z</time>
      </trkpt>
      <trkpt lat="43.69946" lon="0.99906">
        <ele>202.81</ele>
        <time>2015-02-22T12:39:16Z</time>
      </trkpt>
      <trkpt lat="43.69946" lon="0.99906">
        <ele>203.15</ele>
        <time>2015-02-22T12:39:35Z</time>
      </trkpt>
      <trkpt lat="43.69945" lon="0.99907">
        <ele>203.45</ele>
        <time>2015-02-22T12:39:58Z</time>
      </trkpt>
      <trkpt lat="43.69944" lon="0.99907">
        <ele>203.2</ele>
        <time>2015-02-22T12:40:30Z</time>
      </trkpt>
      <trkpt lat="43.69953" lon="0.9991">
        <ele>202.33</ele>
        <time>2015-02-22T12:40:48Z</time>
      </trkpt>
      <trkpt lat="43.69966" lon="0.99914">
        <ele>200.8</ele>
        <time>2015-02-22T12:41:04Z</time>
      </trkpt>
      <trkpt lat="43.69972" lon="0.99921">
        <ele>199.57</ele>
        <time>2015-02-22T12:41:21Z</time>
      </trkpt>
      <trkpt lat="43.69985" lon="0.99928">
        <ele>197.7</ele>
        <time>2015-02-22T12:41:35Z</time>
      </trkpt>
      <trkpt lat="43.6999" lon="0.99931">
        <ele>197.09</ele>
        <time>2015-02-22T12:41:40Z</time>
      </trkpt>
      <trkpt lat="43.70001" lon="0.99938">
        <ele>195.4</ele>
        <time>2015-02-22T12:41:52Z</time>
      </trkpt>
      <trkpt lat="43.70005" lon="0.99944">
        <ele>193.63</ele>
        <time>2015-02-22T12:42:11Z</time>
      </trkpt>
      <trkpt lat="43.70015" lon="0.99952">
        <ele>192.52</ele>
        <time>2015-02-22T12:42:33Z</time>
      </trkpt>
      <trkpt lat="43.7003" lon="0.99965">
        <ele>189.95</ele>
        <time>2015-02-22T12:42:53Z</time>
      </trkpt>
      <trkpt lat="43.70045" lon="0.9998">
        <ele>187.44</ele>
        <time>2015-02-22T12:43:13Z</time>
      </trkpt>
      <trkpt lat="43.70061" lon="0.99997">
        <ele>185.11</ele>
        <time>2015-02-22T12:43:32Z</time>
      </trkpt>
      <trkpt lat="43.70076" lon="1.00019">
        <ele>182.84</ele>
        <time>2015-02-22T12:43:52Z</time>
      </trkpt>
      <trkpt lat="43.70088" lon="1.00037">
        <ele>181.1</ele>
        <time>2015-02-22T12:44:10Z</time>
      </trkpt>
      <trkpt lat="43.70096" lon="1.00041">
        <ele>180.69</ele>
        <time>2015-02-22T12:44:21Z</time>
      </trkpt>
      <trkpt lat="43.70108" lon="1.00028">
        <ele>181.78</ele>
        <time>2015-02-22T12:44:36Z</time>
      </trkpt>
      <trkpt lat="43.70117" lon="1.00012">
        <ele>182.33</ele>
        <time>2015-02-22T12:44:51Z</time>
      </trkpt>
      <trkpt lat="43.70125" lon="0.99995">
        <ele>182.9</ele>
        <time>2015-02-22T12:45:06Z</time>
      </trkpt>
      <trkpt lat="43.7013" lon="0.99979">
        <ele>183.64</ele>
        <time>2015-02-22T12:45:19Z</time>
      </trkpt>
      <trkpt lat="43.70135" lon="0.99959">
        <ele>185.11</ele>
        <time>2015-02-22T12:45:35Z</time>
      </trkpt>
      <trkpt lat="43.70138" lon="0.9995">
        <ele>185.58</ele>
        <time>2015-02-22T12:45:43Z</time>
      </trkpt>
      <trkpt lat="43.70142" lon="0.99932">
        <ele>186.42</ele>
        <time>2015-02-22T12:45:57Z</time>
      </trkpt>
      <trkpt lat="43.70148" lon="0.99915">
        <ele>187.42</ele>
        <time>2015-02-22T12:46:13Z</time>
      </trkpt>
      <trkpt lat="43.70148" lon="0.99914">
        <ele>187.5</ele>
        <time>2015-02-22T12:46:14Z</time>
      </trkpt>
      <trkpt lat="43.70151" lon="0.99901">
        <ele>188.06</ele>
        <time>2015-02-22T12:46:25Z</time>
      </trkpt>
      <trkpt lat="43.70153" lon="0.99891">
        <ele>188.24</ele>
        <time>2015-02-22T12:46:33Z</time>
      </trkpt>
      <trkpt lat="43.7016" lon="0.99876">
        <ele>188.73</ele>
        <time>2015-02-22T12:46:50Z</time>
      </trkpt>
      <trkpt lat="43.70171" lon="0.99867">
        <ele>189.44</ele>
        <time>2015-02-22T12:47:07Z</time>
      </trkpt>
      <trkpt lat="43.70176" lon="0.99868">
        <ele>189.87</ele>
        <time>2015-02-22T12:47:13Z</time>
      </trkpt>
      <trkpt lat="43.70187" lon="0.99873">
        <ele>190.98</ele>
        <time>2015-02-22T12:47:27Z</time>
      </trkpt>
      <trkpt lat="43.70198" lon="0.99877">
        <ele>192.63</ele>
        <time>2015-02-22T12:47:42Z</time>
      </trkpt>
      <trkpt lat="43.70211" lon="0.99882">
        <ele>195.16</ele>
        <time>2015-02-22T12:47:58Z</time>
      </trkpt>
      <trkpt lat="43.70219" lon="0.99885">
        <ele>196.94</ele>
        <time>2015-02-22T12:48:12Z</time>
      </trkpt>
      <trkpt lat="43.7023" lon="0.99888">
        <ele>199.07</ele>
        <time>2015-02-22T12:48:29Z</time>
      </trkpt>
      <trkpt lat="43.70238" lon="0.99891">
        <ele>199.88</ele>
        <time>2015-02-22T12:48:39Z</time>
      </trkpt>
      <trkpt lat="43.70254" lon="0.999">
        <ele>200.59</ele>
        <time>2015-02-22T12:48:57Z</time>
      </trkpt>
      <trkpt lat="43.70256" lon="0.99901">
        <ele>200.48</ele>
        <time>2015-02-22T12:49:00Z</time>
      </trkpt>
      <trkpt lat="43.70271" lon="0.99906">
        <ele>200.82</ele>
        <time>2015-02-22T12:49:15Z</time>
      </trkpt>
      <trkpt lat="43.70291" lon="0.99916">
        <ele>202.16</ele>
        <time>2015-02-22T12:49:34Z</time>
      </trkpt>
      <trkpt lat="43.70309" lon="0.9992">
        <ele>203.31</ele>
        <time>2015-02-22T12:49:51Z</time>
      </trkpt>
      <trkpt lat="43.70325" lon="0.9992">
        <ele>205.49</ele>
        <time>2015-02-22T12:50:06Z</time>
      </trkpt>
      <trkpt lat="43.70342" lon="0.9992">
        <ele>207.01</ele>
        <time>2015-02-22T12:50:22Z</time>
      </trkpt>
      <trkpt lat="43.70357" lon="0.9992">
        <ele>208.92</ele>
        <time>2015-02-22T12:50:38Z</time>
      </trkpt>
      <trkpt lat="43.70371" lon="0.9992">
        <ele>210.04</ele>
        <time>2015-02-22T12:50:51Z</time>
      </trkpt>
      <trkpt lat="43.7039" lon="0.99923">
        <ele>211.09</ele>
        <time>2015-02-22T12:51:07Z</time>
      </trkpt>
      <trkpt lat="43.70414" lon="0.99925">
        <ele>211.64</ele>
        <time>2015-02-22T12:51:28Z</time>
      </trkpt>
      <trkpt lat="43.70424" lon="0.99927">
        <ele>212.83</ele>
        <time>2015-02-22T12:51:46Z</time>
      </trkpt>
      <trkpt lat="43.70425" lon="0.99926">
        <ele>212.47</ele>
        <time>2015-02-22T12:52:11Z</time>
      </trkpt>
      <trkpt lat="43.70426" lon="0.99926">
        <ele>212.22</ele>
        <time>2015-02-22T12:52:35Z</time>
      </trkpt>
      <trkpt lat="43.70427" lon="0.99925">
        <ele>212.42</ele>
        <time>2015-02-22T12:53:00Z</time>
      </trkpt>
      <trkpt lat="43.70431" lon="0.99922">
        <ele>212.23</ele>
        <time>2015-02-22T12:53:29Z</time>
      </trkpt>
      <trkpt lat="43.70431" lon="0.9991">
        <ele>211.65</ele>
        <time>2015-02-22T12:53:41Z</time>
      </trkpt>
      <trkpt lat="43.7043" lon="0.99886">
        <ele>211.33</ele>
        <time>2015-02-22T12:53:57Z</time>
      </trkpt>
      <trkpt lat="43.70429" lon="0.99869">
        <ele>211.28</ele>
        <time>2015-02-22T12:54:11Z</time>
      </trkpt>
      <trkpt lat="43.70429" lon="0.99861">
        <ele>211.43</ele>
        <time>2015-02-22T12:54:16Z</time>
      </trkpt>
      <trkpt lat="43.70429" lon="0.99836">
        <ele>211.7</ele>
        <time>2015-02-22T12:54:34Z</time>
      </trkpt>
      <trkpt lat="43.70431" lon="0.99805">
        <ele>212.36</ele>
        <time>2015-02-22T12:54:53Z</time>
      </trkpt>
      <trkpt lat="43.7043" lon="0.99779">
        <ele>212.25</ele>
        <time>2015-02-22T12:55:11Z</time>
      </trkpt>
      <trkpt lat="43.7043" lon="0.99753">
        <ele>211.46</ele>
        <time>2015-02-22T12:55:30Z</time>
      </trkpt>
      <trkpt lat="43.70429" lon="0.99748">
        <ele>211.26</ele>
        <time>2015-02-22T12:55:33Z</time>
      </trkpt>
      <trkpt lat="43.70426" lon="0.99727">
        <ele>210.25</ele>
        <time>2015-02-22T12:55:48Z</time>
      </trkpt>
      <trkpt lat="43.70426" lon="0.99725">
        <ele>210.26</ele>
        <time>2015-02-22T12:55:49Z</time>
      </trkpt>
      <trkpt lat="43.70425" lon="0.99706">
        <ele>210.66</ele>
        <time>2015-02-22T12:56:04Z</time>
      </trkpt>
      <trkpt lat="43.70425" lon="0.997">
        <ele>211.65</ele>
        <time>2015-02-22T12:56:19Z</time>
      </trkpt>
      <trkpt lat="43.70424" lon="0.99697">
        <ele>211.7</ele>
        <time>2015-02-22T12:56:22Z</time>
      </trkpt>
      <trkpt lat="43.70422" lon="0.99688">
        <ele>211.64</ele>
        <time>2015-02-22T12:56:28Z</time>
      </trkpt>
      <trkpt lat="43.70422" lon="0.9968">
        <ele>211.27</ele>
        <time>2015-02-22T12:56:33Z</time>
      </trkpt>
      <trkpt lat="43.70435" lon="0.99676">
        <ele>211.48</ele>
        <time>2015-02-22T12:56:45Z</time>
      </trkpt>
      <trkpt lat="43.70445" lon="0.99679">
        <ele>211.22</ele>
        <time>2015-02-22T12:56:52Z</time>
      </trkpt>
      <trkpt lat="43.70452" lon="0.99683">
        <ele>210.36</ele>
        <time>2015-02-22T12:56:57Z</time>
      </trkpt>
      <trkpt lat="43.7047" lon="0.9969">
        <ele>207.04</ele>
        <time>2015-02-22T12:57:14Z</time>
      </trkpt>
      <trkpt lat="43.7049" lon="0.99698">
        <ele>204.32</ele>
        <time>2015-02-22T12:57:33Z</time>
      </trkpt>
      <trkpt lat="43.70506" lon="0.99706">
        <ele>203.59</ele>
        <time>2015-02-22T12:57:50Z</time>
      </trkpt>
      <trkpt lat="43.70522" lon="0.99711">
        <ele>203.92</ele>
        <time>2015-02-22T12:58:06Z</time>
      </trkpt>
      <trkpt lat="43.7054" lon="0.99718">
        <ele>204.29</ele>
        <time>2015-02-22T12:58:24Z</time>
      </trkpt>
      <trkpt lat="43.70564" lon="0.99725">
        <ele>203.19</ele>
        <time>2015-02-22T12:58:42Z</time>
      </trkpt>
      <trkpt lat="43.70586" lon="0.99734">
        <ele>200.13</ele>
        <time>2015-02-22T12:59:00Z</time>
      </trkpt>
      <trkpt lat="43.70611" lon="0.99742">
        <ele>197.76</ele>
        <time>2015-02-22T12:59:21Z</time>
      </trkpt>
      <trkpt lat="43.7063" lon="0.99749">
        <ele>196.33</ele>
        <time>2015-02-22T12:59:37Z</time>
      </trkpt>
      <trkpt lat="43.70648" lon="0.99757">
        <ele>195.56</ele>
        <time>2015-02-22T12:59:53Z</time>
      </trkpt>
      <trkpt lat="43.70671" lon="0.99766">
        <ele>194.91</ele>
        <time>2015-02-22T13:00:13Z</time>
      </trkpt>
      <trkpt lat="43.70694" lon="0.99775">
        <ele>193.04</ele>
        <time>2015-02-22T13:00:33Z</time>
      </trkpt>
      <trkpt lat="43.70713" lon="0.99782">
        <ele>191.68</ele>
        <time>2015-02-22T13:00:50Z</time>
      </trkpt>
      <trkpt lat="43.70732" lon="0.9979">
        <ele>191.02</ele>
        <time>2015-02-22T13:01:06Z</time>
      </trkpt>
      <trkpt lat="43.70751" lon="0.99798">
        <ele>189.65</ele>
        <time>2015-02-22T13:01:22Z</time>
      </trkpt>
      <trkpt lat="43.70772" lon="0.99807">
        <ele>188.37</ele>
        <time>2015-02-22T13:01:42Z</time>
      </trkpt>
      <trkpt lat="43.70786" lon="0.99813">
        <ele>187.98</ele>
        <time>2015-02-22T13:01:58Z</time>
      </trkpt>
      <trkpt lat="43.70802" lon="0.99816">
        <ele>188.29</ele>
        <time>2015-02-22T13:02:17Z</time>
      </trkpt>
      <trkpt lat="43.70819" lon="0.99821">
        <ele>188.88</ele>
        <time>2015-02-22T13:02:33Z</time>
      </trkpt>
      <trkpt lat="43.70822" lon="0.99821">
        <ele>189.02</ele>
        <time>2015-02-22T13:02:35Z</time>
      </trkpt>
      <trkpt lat="43.70842" lon="0.99824">
        <ele>190.12</ele>
        <time>2015-02-22T13:02:51Z</time>
      </trkpt>
      <trkpt lat="43.70858" lon="0.99828">
        <ele>191.05</ele>
        <time>2015-02-22T13:03:06Z</time>
      </trkpt>
      <trkpt lat="43.70876" lon="0.99833">
        <ele>192.35</ele>
        <time>2015-02-22T13:03:23Z</time>
      </trkpt>
      <trkpt lat="43.70892" lon="0.99837">
        <ele>193.94</ele>
        <time>2015-02-22T13:03:39Z</time>
      </trkpt>
      <trkpt lat="43.70905" lon="0.99846">
        <ele>195.48</ele>
        <time>2015-02-22T13:03:54Z</time>
      </trkpt>
      <trkpt lat="43.70908" lon="0.99846">
        <ele>195.77</ele>
        <time>2015-02-22T13:03:57Z</time>
      </trkpt>
      <trkpt lat="43.70924" lon="0.99849">
        <ele>197.85</ele>
        <time>2015-02-22T13:04:12Z</time>
      </trkpt>
      <trkpt lat="43.70935" lon="0.99847">
        <ele>199.68</ele>
        <time>2015-02-22T13:04:23Z</time>
      </trkpt>
      <trkpt lat="43.70946" lon="0.99843">
        <ele>200.4</ele>
        <time>2015-02-22T13:04:33Z</time>
      </trkpt>
      <trkpt lat="43.70949" lon="0.99842">
        <ele>200.47</ele>
        <time>2015-02-22T13:04:35Z</time>
      </trkpt>
      <trkpt lat="43.70952" lon="0.99841">
        <ele>200.56</ele>
        <time>2015-02-22T13:04:37Z</time>
      </trkpt>
      <trkpt lat="43.70967" lon="0.99837">
        <ele>201.68</ele>
        <time>2015-02-22T13:04:51Z</time>
      </trkpt>
      <trkpt lat="43.70982" lon="0.99834">
        <ele>203.31</ele>
        <time>2015-02-22T13:05:09Z</time>
      </trkpt>
      <trkpt lat="43.7099" lon="0.99832">
        <ele>204.4</ele>
        <time>2015-02-22T13:05:21Z</time>
      </trkpt>
      <trkpt lat="43.71003" lon="0.99827">
        <ele>206.39</ele>
        <time>2015-02-22T13:05:35Z</time>
      </trkpt>
      <trkpt lat="43.71012" lon="0.99825">
        <ele>208.61</ele>
        <time>2015-02-22T13:05:51Z</time>
      </trkpt>
      <trkpt lat="43.71013" lon="0.99824">
        <ele>208.99</ele>
        <time>2015-02-22T13:06:20Z</time>
      </trkpt>
      <trkpt lat="43.71013" lon="0.99824">
        <ele>208.29</ele>
        <time>2015-02-22T13:06:51Z</time>
      </trkpt>
      <trkpt lat="43.71013" lon="0.99823">
        <ele>208.97</ele>
        <time>2015-02-22T13:07:19Z</time>
      </trkpt>
      <trkpt lat="43.71014" lon="0.99823">
        <ele>209.08</ele>
        <time>2015-02-22T13:07:50Z</time>
      </trkpt>
      <trkpt lat="43.71015" lon="0.99824">
        <ele>209.06</ele>
        <time>2015-02-22T13:08:24Z</time>
      </trkpt>
      <trkpt lat="43.71014" lon="0.99823">
        <ele>209.32</ele>
        <time>2015-02-22T13:08:57Z</time>
      </trkpt>
      <trkpt lat="43.71022" lon="0.99823">
        <ele>209.42</ele>
        <time>2015-02-22T13:09:20Z</time>
      </trkpt>
      <trkpt lat="43.71033" lon="0.99825">
        <ele>209.05</ele>
        <time>2015-02-22T13:09:34Z</time>
      </trkpt>
      <trkpt lat="43.71041" lon="0.99825">
        <ele>207.97</ele>
        <time>2015-02-22T13:09:45Z</time>
      </trkpt>
      <trkpt lat="43.71043" lon="0.99826">
        <ele>207.58</ele>
        <time>2015-02-22T13:09:47Z</time>
      </trkpt>
      <trkpt lat="43.7105" lon="0.99827">
        <ele>206.79</ele>
        <time>2015-02-22T13:09:56Z</time>
      </trkpt>
      <trkpt lat="43.71052" lon="0.99827">
        <ele>206.63</ele>
        <time>2015-02-22T13:09:58Z</time>
      </trkpt>
      <trkpt lat="43.71068" lon="0.99828">
        <ele>204.91</ele>
        <time>2015-02-22T13:10:14Z</time>
      </trkpt>
      <trkpt lat="43.71068" lon="0.99828">
        <ele>204.82</ele>
        <time>2015-02-22T13:10:15Z</time>
      </trkpt>
      <trkpt lat="43.71086" lon="0.99827">
        <ele>203.21</ele>
        <time>2015-02-22T13:10:30Z</time>
      </trkpt>
      <trkpt lat="43.71099" lon="0.9983">
        <ele>202.08</ele>
        <time>2015-02-22T13:10:41Z</time>
      </trkpt>
      <trkpt lat="43.71108" lon="0.99829">
        <ele>201.23</ele>
        <time>2015-02-22T13:10:48Z</time>
      </trkpt>
      <trkpt lat="43.71121" lon="0.9983">
        <ele>199.59</ele>
        <time>2015-02-22T13:11:00Z</time>
      </trkpt>
      <trkpt lat="43.71128" lon="0.99832">
        <ele>198.6</ele>
        <time>2015-02-22T13:11:06Z</time>
      </trkpt>
      <trkpt lat="43.71138" lon="0.99834">
        <ele>197.79</ele>
        <time>2015-02-22T13:11:14Z</time>
      </trkpt>
      <trkpt lat="43.7114" lon="0.99836">
        <ele>197.61</ele>
        <time>2015-02-22T13:11:16Z</time>
      </trkpt>
      <trkpt lat="43.71147" lon="0.99839">
        <ele>197.07</ele>
        <time>2015-02-22T13:11:22Z</time>
      </trkpt>
      <trkpt lat="43.71158" lon="0.99843">
        <ele>195.34</ele>
        <time>2015-02-22T13:11:34Z</time>
      </trkpt>
      <trkpt lat="43.71161" lon="0.99844">
        <ele>195.06</ele>
        <time>2015-02-22T13:11:36Z</time>
      </trkpt>
      <trkpt lat="43.71177" lon="0.99854">
        <ele>193.57</ele>
        <time>2015-02-22T13:11:50Z</time>
      </trkpt>
      <trkpt lat="43.71181" lon="0.99855">
        <ele>193.05</ele>
        <time>2015-02-22T13:11:54Z</time>
      </trkpt>
      <trkpt lat="43.712" lon="0.99867">
        <ele>191.66</ele>
        <time>2015-02-22T13:12:12Z</time>
      </trkpt>
      <trkpt lat="43.71226" lon="0.99879">
        <ele>189.57</ele>
        <time>2015-02-22T13:12:34Z</time>
      </trkpt>
      <trkpt lat="43.71241" lon="0.99888">
        <ele>188.13</ele>
        <time>2015-02-22T13:12:48Z</time>
      </trkpt>
      <trkpt lat="43.71263" lon="0.99903">
        <ele>186.53</ele>
        <time>2015-02-22T13:13:08Z</time>
      </trkpt>
      <trkpt lat="43.71281" lon="0.99914">
        <ele>185.33</ele>
        <time>2015-02-22T13:13:25Z</time>
      </trkpt>
      <trkpt lat="43.71298" lon="0.99933">
        <ele>185.05</ele>
        <time>2015-02-22T13:13:42Z</time>
      </trkpt>
      <trkpt lat="43.71312" lon="0.99943">
        <ele>184.15</ele>
        <time>2015-02-22T13:13:57Z</time>
      </trkpt>
      <trkpt lat="43.71313" lon="0.99943">
        <ele>184.11</ele>
        <time>2015-02-22T13:13:58Z</time>
      </trkpt>
      <trkpt lat="43.71331" lon="0.99947">
        <ele>184.15</ele>
        <time>2015-02-22T13:14:13Z</time>
      </trkpt>
      <trkpt lat="43.71339" lon="0.99951">
        <ele>184.57</ele>
        <time>2015-02-22T13:14:28Z</time>
      </trkpt>
      <trkpt lat="43.7134" lon="0.99952">
        <ele>184.9</ele>
        <time>2015-02-22T13:15:00Z</time>
      </trkpt>
      <trkpt lat="43.71338" lon="0.9995">
        <ele>184.71</ele>
        <time>2015-02-22T13:15:28Z</time>
      </trkpt>
      <trkpt lat="43.7134" lon="0.99948">
        <ele>184.56</ele>
        <time>2015-02-22T13:15:51Z</time>
      </trkpt>
      <trkpt lat="43.71347" lon="0.9995">
        <ele>184.73</ele>
        <time>2015-02-22T13:16:13Z</time>
      </trkpt>
      <trkpt lat="43.71348" lon="0.99951">
        <ele>184.75</ele>
        <time>2015-02-22T13:16:14Z</time>
      </trkpt>
      <trkpt lat="43.71366" lon="0.99956">
        <ele>184.11</ele>
        <time>2015-02-22T13:16:32Z</time>
      </trkpt>
      <trkpt lat="43.71381" lon="0.99962">
        <ele>184.01</ele>
        <time>2015-02-22T13:16:49Z</time>
      </trkpt>
      <trkpt lat="43.71389" lon="0.99963">
        <ele>183.54</ele>
        <time>2015-02-22T13:16:55Z</time>
      </trkpt>
      <trkpt lat="43.71401" lon="0.99958">
        <ele>182.22</ele>
        <time>2015-02-22T13:17:06Z</time>
      </trkpt>
      <trkpt lat="43.71422" lon="0.99946">
        <ele>180.12</ele>
        <time>2015-02-22T13:17:24Z</time>
      </trkpt>
      <trkpt lat="43.71426" lon="0.99944">
        <ele>179.69</ele>
        <time>2015-02-22T13:17:28Z</time>
      </trkpt>
      <trkpt lat="43.71444" lon="0.99936">
        <ele>177.89</ele>
        <time>2015-02-22T13:17:45Z</time>
      </trkpt>
      <trkpt lat="43.71445" lon="0.99936">
        <ele>177.8</ele>
        <time>2015-02-22T13:17:46Z</time>
      </trkpt>
      <trkpt lat="43.71456" lon="0.99932">
        <ele>176.74</ele>
        <time>2015-02-22T13:17:56Z</time>
      </trkpt>
      <trkpt lat="43.71467" lon="0.9993">
        <ele>176.21</ele>
        <time>2015-02-22T13:18:05Z</time>
      </trkpt>
      <trkpt lat="43.71493" lon="0.99931">
        <ele>175.5</ele>
        <time>2015-02-22T13:18:23Z</time>
      </trkpt>
      <trkpt lat="43.71511" lon="0.99942">
        <ele>175.73</ele>
        <time>2015-02-22T13:18:41Z</time>
      </trkpt>
      <trkpt lat="43.71521" lon="0.99949">
        <ele>176.6</ele>
        <time>2015-02-22T13:18:51Z</time>
      </trkpt>
      <trkpt lat="43.71536" lon="0.9996">
        <ele>178.15</ele>
        <time>2015-02-22T13:19:08Z</time>
      </trkpt>
      <trkpt lat="43.71552" lon="0.9997">
        <ele>179.93</ele>
        <time>2015-02-22T13:19:24Z</time>
      </trkpt>
      <trkpt lat="43.71572" lon="0.99985">
        <ele>181.42</ele>
        <time>2015-02-22T13:19:44Z</time>
      </trkpt>
      <trkpt lat="43.7159" lon="0.99998">
        <ele>183.37</ele>
        <time>2015-02-22T13:20:04Z</time>
      </trkpt>
      <trkpt lat="43.71594" lon="1">
        <ele>183.95</ele>
        <time>2015-02-22T13:20:08Z</time>
      </trkpt>
      <trkpt lat="43.71615" lon="1.00008">
        <ele>186.4</ele>
        <time>2015-02-22T13:20:30Z</time>
      </trkpt>
      <trkpt lat="43.71628" lon="1.00015">
        <ele>188.61</ele>
        <time>2015-02-22T13:20:46Z</time>
      </trkpt>
      <trkpt lat="43.7164" lon="1.00027">
        <ele>190.35</ele>
        <time>2015-02-22T13:21:01Z</time>
      </trkpt>
      <trkpt lat="43.71646" lon="1.00033">
        <ele>191.19</ele>
        <time>2015-02-22T13:21:08Z</time>
      </trkpt>
      <trkpt lat="43.71655" lon="1.00042">
        <ele>192.43</ele>
        <time>2015-02-22T13:21:19Z</time>
      </trkpt>
      <trkpt lat="43.71666" lon="1.00059">
        <ele>195.09</ele>
        <time>2015-02-22T13:21:39Z</time>
      </trkpt>
      <trkpt lat="43.71669" lon="1.00062">
        <ele>195.96</ele>
        <time>2015-02-22T13:22:00Z</time>
      </trkpt>
      <trkpt lat="43.71676" lon="1.00053">
        <ele>196.38</ele>
        <time>2015-02-22T13:22:22Z</time>
      </trkpt>
      <trkpt lat="43.71683" lon="1.00032">
        <ele>195.6</ele>
        <time>2015-02-22T13:22:39Z</time>
      </trkpt>
      <trkpt lat="43.71693" lon="1.00009">
        <ele>195</ele>
        <time>2015-02-22T13:22:56Z</time>
      </trkpt>
      <trkpt lat="43.71704" lon="0.99988">
        <ele>195.18</ele>
        <time>2015-02-22T13:23:10Z</time>
      </trkpt>
      <trkpt lat="43.71711" lon="0.99976">
        <ele>194.9</ele>
        <time>2015-02-22T13:23:20Z</time>
      </trkpt>
      <trkpt lat="43.71713" lon="0.99971">
        <ele>194.68</ele>
        <time>2015-02-22T13:23:23Z</time>
      </trkpt>
      <trkpt lat="43.71722" lon="0.99951">
        <ele>193.49</ele>
        <time>2015-02-22T13:23:38Z</time>
      </trkpt>
      <trkpt lat="43.71727" lon="0.99939">
        <ele>193.51</ele>
        <time>2015-02-22T13:23:47Z</time>
      </trkpt>
      <trkpt lat="43.71735" lon="0.99919">
        <ele>193.05</ele>
        <time>2015-02-22T13:24:01Z</time>
      </trkpt>
      <trkpt lat="43.71739" lon="0.99915">
        <ele>193.1</ele>
        <time>2015-02-22T13:24:05Z</time>
      </trkpt>
      <trkpt lat="43.71757" lon="0.99907">
        <ele>193.93</ele>
        <time>2015-02-22T13:24:22Z</time>
      </trkpt>
      <trkpt lat="43.71777" lon="0.99906">
        <ele>194</ele>
        <time>2015-02-22T13:24:38Z</time>
      </trkpt>
      <trkpt lat="43.71804" lon="0.99911">
        <ele>193.09</ele>
        <time>2015-02-22T13:24:59Z</time>
      </trkpt>
      <trkpt lat="43.71829" lon="0.99927">
        <ele>192.11</ele>
        <time>2015-02-22T13:25:21Z</time>
      </trkpt>
      <trkpt lat="43.71853" lon="0.99942">
        <ele>190.44</ele>
        <time>2015-02-22T13:25:42Z</time>
      </trkpt>
      <trkpt lat="43.71878" lon="0.9996">
        <ele>189.44</ele>
        <time>2015-02-22T13:26:03Z</time>
      </trkpt>
      <trkpt lat="43.71903" lon="0.99976">
        <ele>188.93</ele>
        <time>2015-02-22T13:26:25Z</time>
      </trkpt>
      <trkpt lat="43.71925" lon="0.99991">
        <ele>188.09</ele>
        <time>2015-02-22T13:26:46Z</time>
      </trkpt>
      <trkpt lat="43.71952" lon="1.00009">
        <ele>187.78</ele>
        <time>2015-02-22T13:27:08Z</time>
      </trkpt>
      <trkpt lat="43.71974" lon="1.00023">
        <ele>187.48</ele>
        <time>2015-02-22T13:27:27Z</time>
      </trkpt>
      <trkpt lat="43.71996" lon="1.00035">
        <ele>188.27</ele>
        <time>2015-02-22T13:27:47Z</time>
      </trkpt>
      <trkpt lat="43.72026" lon="1.00037">
        <ele>188.79</ele>
        <time>2015-02-22T13:28:11Z</time>
      </trkpt>
      <trkpt lat="43.72046" lon="1.00025">
        <ele>189.74</ele>
        <time>2015-02-22T13:28:30Z</time>
      </trkpt>
      <trkpt lat="43.72069" lon="1.00006">
        <ele>190.47</ele>
        <time>2015-02-22T13:28:51Z</time>
      </trkpt>
      <trkpt lat="43.72091" lon="0.99989">
        <ele>190.42</ele>
        <time>2015-02-22T13:29:10Z</time>
      </trkpt>
      <trkpt lat="43.72111" lon="0.99969">
        <ele>190.33</ele>
        <time>2015-02-22T13:29:29Z</time>
      </trkpt>
      <trkpt lat="43.72131" lon="0.99947">
        <ele>189.13</ele>
        <time>2015-02-22T13:29:50Z</time>
      </trkpt>
      <trkpt lat="43.72151" lon="0.99925">
        <ele>189.23</ele>
        <time>2015-02-22T13:30:08Z</time>
      </trkpt>
      <trkpt lat="43.72167" lon="0.99899">
        <ele>188.31</ele>
        <time>2015-02-22T13:30:27Z</time>
      </trkpt>
      <trkpt lat="43.72179" lon="0.99879">
        <ele>187.95</ele>
        <time>2015-02-22T13:30:44Z</time>
      </trkpt>
      <trkpt lat="43.72191" lon="0.99864">
        <ele>187.25</ele>
        <time>2015-02-22T13:31:00Z</time>
      </trkpt>
      <trkpt lat="43.72208" lon="0.99861">
        <ele>186.61</ele>
        <time>2015-02-22T13:31:17Z</time>
      </trkpt>
      <trkpt lat="43.72209" lon="0.99861">
        <ele>186.51</ele>
        <time>2015-02-22T13:31:18Z</time>
      </trkpt>
      <trkpt lat="43.7223" lon="0.99866">
        <ele>184.83</ele>
        <time>2015-02-22T13:31:38Z</time>
      </trkpt>
      <trkpt lat="43.72236" lon="0.99867">
        <ele>184.05</ele>
        <time>2015-02-22T13:31:50Z</time>
      </trkpt>
      <trkpt lat="43.72239" lon="0.99868">
        <ele>183.96</ele>
        <time>2015-02-22T13:31:56Z</time>
      </trkpt>
      <trkpt lat="43.7226" lon="0.99878">
        <ele>182.76</ele>
        <time>2015-02-22T13:32:14Z</time>
      </trkpt>
      <trkpt lat="43.72282" lon="0.99887">
        <ele>181.02</ele>
        <time>2015-02-22T13:32:34Z</time>
      </trkpt>
      <trkpt lat="43.72305" lon="0.99895">
        <ele>179.38</ele>
        <time>2015-02-22T13:32:53Z</time>
      </trkpt>
      <trkpt lat="43.72323" lon="0.99902">
        <ele>178.56</ele>
        <time>2015-02-22T13:33:09Z</time>
      </trkpt>
      <trkpt lat="43.72351" lon="0.9991">
        <ele>177.77</ele>
        <time>2015-02-22T13:33:32Z</time>
      </trkpt>
      <trkpt lat="43.72378" lon="0.9991">
        <ele>177.07</ele>
        <time>2015-02-22T13:33:55Z</time>
      </trkpt>
      <trkpt lat="43.72401" lon="0.99909">
        <ele>176.7</ele>
        <time>2015-02-22T13:34:15Z</time>
      </trkpt>
      <trkpt lat="43.72425" lon="0.99907">
        <ele>176.25</ele>
        <time>2015-02-22T13:34:35Z</time>
      </trkpt>
      <trkpt lat="43.72449" lon="0.99906">
        <ele>176.35</ele>
        <time>2015-02-22T13:34:55Z</time>
      </trkpt>
      <trkpt lat="43.72451" lon="0.99906">
        <ele>176.35</ele>
        <time>2015-02-22T13:34:58Z</time>
      </trkpt>
      <trkpt lat="43.72454" lon="0.99906">
        <ele>176.11</ele>
        <time>2015-02-22T13:35:01Z</time>
      </trkpt>
      <trkpt lat="43.72482" lon="0.99905">
        <ele>175.19</ele>
        <time>2015-02-22T13:35:23Z</time>
      </trkpt>
      <trkpt lat="43.72488" lon="0.99904">
        <ele>174.22</ele>
        <time>2015-02-22T13:35:37Z</time>
      </trkpt>
      <trkpt lat="43.72488" lon="0.99904">
        <ele>173.83</ele>
        <time>2015-02-22T13:35:54Z</time>
      </trkpt>
      <trkpt lat="43.72489" lon="0.99902">
        <ele>174.08</ele>
        <time>2015-02-22T13:36:09Z</time>
      </trkpt>
      <trkpt lat="43.72491" lon="0.99896">
        <ele>173.65</ele>
        <time>2015-02-22T13:36:14Z</time>
      </trkpt>
      <trkpt lat="43.72495" lon="0.99884">
        <ele>173.95</ele>
        <time>2015-02-22T13:36:24Z</time>
      </trkpt>
      <trkpt lat="43.72498" lon="0.99881">
        <ele>174.17</ele>
        <time>2015-02-22T13:36:27Z</time>
      </trkpt>
      <trkpt lat="43.7251" lon="0.99866">
        <ele>173.7</ele>
        <time>2015-02-22T13:36:41Z</time>
      </trkpt>
      <trkpt lat="43.72525" lon="0.99846">
        <ele>173.67</ele>
        <time>2015-02-22T13:36:58Z</time>
      </trkpt>
      <trkpt lat="43.72546" lon="0.99828">
        <ele>173.56</ele>
        <time>2015-02-22T13:37:14Z</time>
      </trkpt>
      <trkpt lat="43.72565" lon="0.99808">
        <ele>173.08</ele>
        <time>2015-02-22T13:37:32Z</time>
      </trkpt>
      <trkpt lat="43.7257" lon="0.99804">
        <ele>173.02</ele>
        <time>2015-02-22T13:37:36Z</time>
      </trkpt>
      <trkpt lat="43.72585" lon="0.9979">
        <ele>172.58</ele>
        <time>2015-02-22T13:37:50Z</time>
      </trkpt>
      <trkpt lat="43.7259" lon="0.99782">
        <ele>172.05</ele>
        <time>2015-02-22T13:37:56Z</time>
      </trkpt>
      <trkpt lat="43.72595" lon="0.99778">
        <ele>171.65</ele>
        <time>2015-02-22T13:38:01Z</time>
      </trkpt>
      <trkpt lat="43.72606" lon="0.9977">
        <ele>171.41</ele>
        <time>2015-02-22T13:38:11Z</time>
      </trkpt>
      <trkpt lat="43.72611" lon="0.99766">
        <ele>171.25</ele>
        <time>2015-02-22T13:38:15Z</time>
      </trkpt>
      <trkpt lat="43.72631" lon="0.9975">
        <ele>170.44</ele>
        <time>2015-02-22T13:38:34Z</time>
      </trkpt>
      <trkpt lat="43.72649" lon="0.99739">
        <ele>170.73</ele>
        <time>2015-02-22T13:38:51Z</time>
      </trkpt>
      <trkpt lat="43.72667" lon="0.99729">
        <ele>170.63</ele>
        <time>2015-02-22T13:39:06Z</time>
      </trkpt>
      <trkpt lat="43.72685" lon="0.99718">
        <ele>168.85</ele>
        <time>2015-02-22T13:39:22Z</time>
      </trkpt>
      <trkpt lat="43.72707" lon="0.99708">
        <ele>168.02</ele>
        <time>2015-02-22T13:39:38Z</time>
      </trkpt>
      <trkpt lat="43.72729" lon="0.99704">
        <ele>166.45</ele>
        <time>2015-02-22T13:39:56Z</time>
      </trkpt>
      <trkpt lat="43.72751" lon="0.99701">
        <ele>164.62</ele>
        <time>2015-02-22T13:40:12Z</time>
      </trkpt>
      <trkpt lat="43.7277" lon="0.99697">
        <ele>163.17</ele>
        <time>2015-02-22T13:40:28Z</time>
      </trkpt>
      <trkpt lat="43.72786" lon="0.99695">
        <ele>161.98</ele>
        <time>2015-02-22T13:40:43Z</time>
      </trkpt>
      <trkpt lat="43.72794" lon="0.99693">
        <ele>161.69</ele>
        <time>2015-02-22T13:40:49Z</time>
      </trkpt>
      <trkpt lat="43.72816" lon="0.99688">
        <ele>160.21</ele>
        <time>2015-02-22T13:41:05Z</time>
      </trkpt>
      <trkpt lat="43.72838" lon="0.99676">
        <ele>159.27</ele>
        <time>2015-02-22T13:41:22Z</time>
      </trkpt>
      <trkpt lat="43.72859" lon="0.99665">
        <ele>158.56</ele>
        <time>2015-02-22T13:41:40Z</time>
      </trkpt>
      <trkpt lat="43.72879" lon="0.99651">
        <ele>157.65</ele>
        <time>2015-02-22T13:42:00Z</time>
      </trkpt>
      <trkpt lat="43.72894" lon="0.99641">
        <ele>156.54</ele>
        <time>2015-02-22T13:42:15Z</time>
      </trkpt>
      <trkpt lat="43.72914" lon="0.99624">
        <ele>155.44</ele>
        <time>2015-02-22T13:42:34Z</time>
      </trkpt>
      <trkpt lat="43.72923" lon="0.99615">
        <ele>154.74</ele>
        <time>2015-02-22T13:42:45Z</time>
      </trkpt>
      <trkpt lat="43.7293" lon="0.99612">
        <ele>154.18</ele>
        <time>2015-02-22T13:42:51Z</time>
      </trkpt>
      <trkpt lat="43.72948" lon="0.99603">
        <ele>152.42</ele>
        <time>2015-02-22T13:43:06Z</time>
      </trkpt>
      <trkpt lat="43.72953" lon="0.99602">
        <ele>151.84</ele>
        <time>2015-02-22T13:43:12Z</time>
      </trkpt>
      <trkpt lat="43.7297" lon="0.99598">
        <ele>150.27</ele>
        <time>2015-02-22T13:43:30Z</time>
      </trkpt>
      <trkpt lat="43.72988" lon="0.9959">
        <ele>148.86</ele>
        <time>2015-02-22T13:43:49Z</time>
      </trkpt>
      <trkpt lat="43.73008" lon="0.99584">
        <ele>148.09</ele>
        <time>2015-02-22T13:44:05Z</time>
      </trkpt>
      <trkpt lat="43.73016" lon="0.99579">
        <ele>147.78</ele>
        <time>2015-02-22T13:44:12Z</time>
      </trkpt>
      <trkpt lat="43.73023" lon="0.99576">
        <ele>147.35</ele>
        <time>2015-02-22T13:44:18Z</time>
      </trkpt>
      <trkpt lat="43.73035" lon="0.99574">
        <ele>146.7</ele>
        <time>2015-02-22T13:44:34Z</time>
      </trkpt>
      <trkpt lat="43.73042" lon="0.99569">
        <ele>146.9</ele>
        <time>2015-02-22T13:44:42Z</time>
      </trkpt>
      <trkpt lat="43.73057" lon="0.99569">
        <ele>146.62</ele>
        <time>2015-02-22T13:44:59Z</time>
      </trkpt>
      <trkpt lat="43.73057" lon="0.99568">
        <ele>146.56</ele>
        <time>2015-02-22T13:45:01Z</time>
      </trkpt>
      <trkpt lat="43.7306" lon="0.99565">
        <ele>146.79</ele>
        <time>2015-02-22T13:45:25Z</time>
      </trkpt>
      <trkpt lat="43.73066" lon="0.99562">
        <ele>146.35</ele>
        <time>2015-02-22T13:45:53Z</time>
      </trkpt>
      <trkpt lat="43.73068" lon="0.99567">
        <ele>146.54</ele>
        <time>2015-02-22T13:46:10Z</time>
      </trkpt>
      <trkpt lat="43.73069" lon="0.99567">
        <ele>146.62</ele>
        <time>2015-02-22T13:46:35Z</time>
      </trkpt>
      <trkpt lat="43.73067" lon="0.99569">
        <ele>146.67</ele>
        <time>2015-02-22T13:46:54Z</time>
      </trkpt>
      <trkpt lat="43.73068" lon="0.99564">
        <ele>146.27</ele>
        <time>2015-02-22T13:47:15Z</time>
      </trkpt>
      <trkpt lat="43.73069" lon="0.99564">
        <ele>146.5</ele>
        <time>2015-02-22T13:47:41Z</time>
      </trkpt>
      <trkpt lat="43.73071" lon="0.99564">
        <ele>146.98</ele>
        <time>2015-02-22T13:48:03Z</time>
      </trkpt>
      <trkpt lat="43.73071" lon="0.99562">
        <ele>146.74</ele>
        <time>2015-02-22T13:48:30Z</time>
      </trkpt>
      <trkpt lat="43.73073" lon="0.99562">
        <ele>147.07</ele>
        <time>2015-02-22T13:48:53Z</time>
      </trkpt>
      <trkpt lat="43.73072" lon="0.99563">
        <ele>146.78</ele>
        <time>2015-02-22T13:49:20Z</time>
      </trkpt>
      <trkpt lat="43.73068" lon="0.99568">
        <ele>146.37</ele>
        <time>2015-02-22T13:49:40Z</time>
      </trkpt>
      <trkpt lat="43.7307" lon="0.99568">
        <ele>146.37</ele>
        <time>2015-02-22T13:49:58Z</time>
      </trkpt>
      <trkpt lat="43.73081" lon="0.99559">
        <ele>147.79</ele>
        <time>2015-02-22T13:50:17Z</time>
      </trkpt>
      <trkpt lat="43.73093" lon="0.99553">
        <ele>149.08</ele>
        <time>2015-02-22T13:50:35Z</time>
      </trkpt>
      <trkpt lat="43.73101" lon="0.99549">
        <ele>150.02</ele>
        <time>2015-02-22T13:50:57Z</time>
      </trkpt>
      <trkpt lat="43.73114" lon="0.9954">
        <ele>152.14</ele>
        <time>2015-02-22T13:51:20Z</time>
      </trkpt>
      <trkpt lat="43.73126" lon="0.99536">
        <ele>154.52</ele>
        <time>2015-02-22T13:51:39Z</time>
      </trkpt>
      <trkpt lat="43.73133" lon="0.99532">
        <ele>156.23</ele>
        <time>2015-02-22T13:52:00Z</time>
      </trkpt>
      <trkpt lat="43.73146" lon="0.99526">
        <ele>157.94</ele>
        <time>2015-02-22T13:52:20Z</time>
      </trkpt>
      <trkpt lat="43.73163" lon="0.99518">
        <ele>159.73</ele>
        <time>2015-02-22T13:52:40Z</time>
      </trkpt>
      <trkpt lat="43.73181" lon="0.99512">
        <ele>160.86</ele>
        <time>2015-02-22T13:52:56Z</time>
      </trkpt>
      <trkpt lat="43.73201" lon="0.99506">
        <ele>160.8</ele>
        <time>2015-02-22T13:53:13Z</time>
      </trkpt>
      <trkpt lat="43.73218" lon="0.99501">
        <ele>160.68</ele>
        <time>2015-02-22T13:53:27Z</time>
      </trkpt>
      <trkpt lat="43.73227" lon="0.995">
        <ele>160.73</ele>
        <time>2015-02-22T13:53:42Z</time>
      </trkpt>
      <trkpt lat="43.73246" lon="0.99493">
        <ele>160.17</ele>
        <time>2015-02-22T13:54:00Z</time>
      </trkpt>
      <trkpt lat="43.73264" lon="0.9949">
        <ele>159.9</ele>
        <time>2015-02-22T13:54:16Z</time>
      </trkpt>
      <trkpt lat="43.73281" lon="0.99485">
        <ele>159.26</ele>
        <time>2015-02-22T13:54:31Z</time>
      </trkpt>
      <trkpt lat="43.73301" lon="0.99478">
        <ele>158.03</ele>
        <time>2015-02-22T13:54:48Z</time>
      </trkpt>
      <trkpt lat="43.73324" lon="0.99469">
        <ele>157.1</ele>
        <time>2015-02-22T13:55:12Z</time>
      </trkpt>
      <trkpt lat="43.73348" lon="0.99459">
        <ele>156.88</ele>
        <time>2015-02-22T13:55:33Z</time>
      </trkpt>
      <trkpt lat="43.73362" lon="0.9945">
        <ele>156.63</ele>
        <time>2015-02-22T13:55:47Z</time>
      </trkpt>
      <trkpt lat="43.73383" lon="0.99433">
        <ele>154.93</ele>
        <time>2015-02-22T13:56:10Z</time>
      </trkpt>
      <trkpt lat="43.73396" lon="0.9942">
        <ele>153.94</ele>
        <time>2015-02-22T13:56:23Z</time>
      </trkpt>
      <trkpt lat="43.7341" lon="0.99407">
        <ele>153.37</ele>
        <time>2015-02-22T13:56:34Z</time>
      </trkpt>
      <trkpt lat="43.73423" lon="0.9939">
        <ele>153.16</ele>
        <time>2015-02-22T13:56:49Z</time>
      </trkpt>
      <trkpt lat="43.73434" lon="0.99375">
        <ele>153.12</ele>
        <time>2015-02-22T13:57:03Z</time>
      </trkpt>
      <trkpt lat="43.73445" lon="0.99357">
        <ele>153.32</ele>
        <time>2015-02-22T13:57:18Z</time>
      </trkpt>
      <trkpt lat="43.73455" lon="0.99338">
        <ele>153.83</ele>
        <time>2015-02-22T13:57:32Z</time>
      </trkpt>
      <trkpt lat="43.73467" lon="0.99316">
        <ele>154.34</ele>
        <time>2015-02-22T13:57:48Z</time>
      </trkpt>
      <trkpt lat="43.73477" lon="0.99297">
        <ele>154.16</ele>
        <time>2015-02-22T13:58:03Z</time>
      </trkpt>
      <trkpt lat="43.73488" lon="0.99274">
        <ele>153.8</ele>
        <time>2015-02-22T13:58:20Z</time>
      </trkpt>
      <trkpt lat="43.735" lon="0.99249">
        <ele>153.88</ele>
        <time>2015-02-22T13:58:37Z</time>
      </trkpt>
      <trkpt lat="43.73503" lon="0.99243">
        <ele>153.85</ele>
        <time>2015-02-22T13:58:41Z</time>
      </trkpt>
      <trkpt lat="43.73514" lon="0.99219">
        <ele>153.64</ele>
        <time>2015-02-22T13:58:58Z</time>
      </trkpt>
      <trkpt lat="43.73525" lon="0.99194">
        <ele>153.39</ele>
        <time>2015-02-22T13:59:15Z</time>
      </trkpt>
      <trkpt lat="43.73537" lon="0.9917">
        <ele>153.18</ele>
        <time>2015-02-22T13:59:30Z</time>
      </trkpt>
      <trkpt lat="43.73546" lon="0.99154">
        <ele>152.23</ele>
        <time>2015-02-22T13:59:45Z</time>
      </trkpt>
      <trkpt lat="43.73559" lon="0.99127">
        <ele>151.55</ele>
        <time>2015-02-22T14:00:08Z</time>
      </trkpt>
      <trkpt lat="43.73574" lon="0.99105">
        <ele>150.45</ele>
        <time>2015-02-22T14:00:26Z</time>
      </trkpt>
      <trkpt lat="43.73587" lon="0.99098">
        <ele>149.59</ele>
        <time>2015-02-22T14:00:38Z</time>
      </trkpt>
      <trkpt lat="43.73599" lon="0.99091">
        <ele>149.7</ele>
        <time>2015-02-22T14:00:51Z</time>
      </trkpt>
      <trkpt lat="43.73617" lon="0.99082">
        <ele>149.54</ele>
        <time>2015-02-22T14:01:10Z</time>
      </trkpt>
      <trkpt lat="43.7362" lon="0.99079">
        <ele>149.57</ele>
        <time>2015-02-22T14:01:12Z</time>
      </trkpt>
      <trkpt lat="43.73638" lon="0.99068">
        <ele>148.81</ele>
        <time>2015-02-22T14:01:27Z</time>
      </trkpt>
      <trkpt lat="43.73658" lon="0.99058">
        <ele>147.21</ele>
        <time>2015-02-22T14:01:45Z</time>
      </trkpt>
      <trkpt lat="43.73676" lon="0.99044">
        <ele>145.79</ele>
        <time>2015-02-22T14:02:01Z</time>
      </trkpt>
      <trkpt lat="43.73701" lon="0.99031">
        <ele>144.56</ele>
        <time>2015-02-22T14:02:16Z</time>
      </trkpt>
      <trkpt lat="43.73707" lon="0.99028">
        <ele>144.3</ele>
        <time>2015-02-22T14:02:21Z</time>
      </trkpt>
      <trkpt lat="43.73714" lon="0.99024">
        <ele>143.73</ele>
        <time>2015-02-22T14:02:27Z</time>
      </trkpt>
      <trkpt lat="43.73742" lon="0.99009">
        <ele>142.41</ele>
        <time>2015-02-22T14:02:46Z</time>
      </trkpt>
      <trkpt lat="43.73755" lon="0.99001">
        <ele>142.1</ele>
        <time>2015-02-22T14:02:55Z</time>
      </trkpt>
      <trkpt lat="43.73757" lon="0.98999">
        <ele>142.05</ele>
        <time>2015-02-22T14:02:57Z</time>
      </trkpt>
      <trkpt lat="43.73771" lon="0.98988">
        <ele>141.26</ele>
        <time>2015-02-22T14:03:14Z</time>
      </trkpt>
      <trkpt lat="43.73784" lon="0.98982">
        <ele>141.12</ele>
        <time>2015-02-22T14:03:25Z</time>
      </trkpt>
      <trkpt lat="43.73791" lon="0.98971">
        <ele>141.08</ele>
        <time>2015-02-22T14:03:38Z</time>
      </trkpt>
      <trkpt lat="43.73793" lon="0.98966">
        <ele>141.83</ele>
        <time>2015-02-22T14:04:01Z</time>
      </trkpt>
      <trkpt lat="43.73795" lon="0.98964">
        <ele>141.35</ele>
        <time>2015-02-22T14:04:28Z</time>
      </trkpt>
      <trkpt lat="43.73797" lon="0.98964">
        <ele>142.23</ele>
        <time>2015-02-22T14:04:58Z</time>
      </trkpt>
      <trkpt lat="43.73794" lon="0.98959">
        <ele>142.35</ele>
        <time>2015-02-22T14:05:14Z</time>
      </trkpt>
      <trkpt lat="43.73783" lon="0.98942">
        <ele>142.51</ele>
        <time>2015-02-22T14:05:32Z</time>
      </trkpt>
      <trkpt lat="43.73773" lon="0.98925">
        <ele>142.7</ele>
        <time>2015-02-22T14:05:48Z</time>
      </trkpt>
      <trkpt lat="43.73762" lon="0.98908">
        <ele>142.65</ele>
        <time>2015-02-22T14:06:05Z</time>
      </trkpt>
      <trkpt lat="43.73749" lon="0.98888">
        <ele>142.61</ele>
        <time>2015-02-22T14:06:22Z</time>
      </trkpt>
      <trkpt lat="43.73739" lon="0.98874">
        <ele>143.17</ele>
        <time>2015-02-22T14:06:35Z</time>
      </trkpt>
      <trkpt lat="43.73727" lon="0.98855">
        <ele>143.58</ele>
        <time>2015-02-22T14:06:52Z</time>
      </trkpt>
      <trkpt lat="43.73716" lon="0.98843">
        <ele>144.16</ele>
        <time>2015-02-22T14:07:08Z</time>
      </trkpt>
      <trkpt lat="43.73712" lon="0.98837">
        <ele>144.7</ele>
        <time>2015-02-22T14:07:14Z</time>
      </trkpt>
      <trkpt lat="43.73705" lon="0.98832">
        <ele>145.35</ele>
        <time>2015-02-22T14:07:22Z</time>
      </trkpt>
      <trkpt lat="43.73693" lon="0.98822">
        <ele>146.03</ele>
        <time>2015-02-22T14:07:35Z</time>
      </trkpt>
      <trkpt lat="43.73686" lon="0.98818">
        <ele>146.47</ele>
        <time>2015-02-22T14:07:42Z</time>
      </trkpt>
      <trkpt lat="43.73671" lon="0.98807">
        <ele>146.99</ele>
        <time>2015-02-22T14:07:56Z</time>
      </trkpt>
      <trkpt lat="43.73667" lon="0.98805">
        <ele>147.08</ele>
        <time>2015-02-22T14:07:59Z</time>
      </trkpt>
      <trkpt lat="43.73654" lon="0.98821">
        <ele>147.37</ele>
        <time>2015-02-22T14:08:17Z</time>
      </trkpt>
      <trkpt lat="43.73644" lon="0.98835">
        <ele>148.91</ele>
        <time>2015-02-22T14:08:33Z</time>
      </trkpt>
      <trkpt lat="43.73635" lon="0.98849">
        <ele>151.97</ele>
        <time>2015-02-22T14:08:50Z</time>
      </trkpt>
      <trkpt lat="43.73624" lon="0.98859">
        <ele>154.74</ele>
        <time>2015-02-22T14:09:10Z</time>
      </trkpt>
      <trkpt lat="43.73619" lon="0.98857">
        <ele>155.44</ele>
        <time>2015-02-22T14:09:17Z</time>
      </trkpt>
      <trkpt lat="43.73609" lon="0.9885">
        <ele>155.77</ele>
        <time>2015-02-22T14:09:34Z</time>
      </trkpt>
      <trkpt lat="43.73605" lon="0.98849">
        <ele>155.37</ele>
        <time>2015-02-22T14:09:55Z</time>
      </trkpt>
      <trkpt lat="43.73603" lon="0.98849">
        <ele>155.82</ele>
        <time>2015-02-22T14:10:13Z</time>
      </trkpt>
      <trkpt lat="43.73601" lon="0.98848">
        <ele>155.48</ele>
        <time>2015-02-22T14:10:26Z</time>
      </trkpt>
      <trkpt lat="43.73586" lon="0.98845">
        <ele>155.72</ele>
        <time>2015-02-22T14:10:46Z</time>
      </trkpt>
      <trkpt lat="43.73569" lon="0.98848">
        <ele>155.31</ele>
        <time>2015-02-22T14:11:03Z</time>
      </trkpt>
      <trkpt lat="43.73555" lon="0.98851">
        <ele>155.18</ele>
        <time>2015-02-22T14:11:17Z</time>
      </trkpt>
      <trkpt lat="43.73539" lon="0.98852">
        <ele>155</ele>
        <time>2015-02-22T14:11:33Z</time>
      </trkpt>
      <trkpt lat="43.73535" lon="0.98852">
        <ele>154.98</ele>
        <time>2015-02-22T14:11:37Z</time>
      </trkpt>
      <trkpt lat="43.73517" lon="0.9885">
        <ele>154.83</ele>
        <time>2015-02-22T14:11:54Z</time>
      </trkpt>
      <trkpt lat="43.73499" lon="0.98849">
        <ele>154.6</ele>
        <time>2015-02-22T14:12:10Z</time>
      </trkpt>
      <trkpt lat="43.73485" lon="0.98848">
        <ele>154.94</ele>
        <time>2015-02-22T14:12:25Z</time>
      </trkpt>
      <trkpt lat="43.73483" lon="0.98848">
        <ele>154.91</ele>
        <time>2015-02-22T14:12:27Z</time>
      </trkpt>
      <trkpt lat="43.73468" lon="0.98846">
        <ele>154.72</ele>
        <time>2015-02-22T14:12:42Z</time>
      </trkpt>
      <trkpt lat="43.73458" lon="0.98843">
        <ele>154.84</ele>
        <time>2015-02-22T14:12:53Z</time>
      </trkpt>
      <trkpt lat="43.73449" lon="0.98836">
        <ele>154.77</ele>
        <time>2015-02-22T14:13:02Z</time>
      </trkpt>
      <trkpt lat="43.73437" lon="0.98826">
        <ele>154.94</ele>
        <time>2015-02-22T14:13:16Z</time>
      </trkpt>
      <trkpt lat="43.73425" lon="0.98812">
        <ele>154.85</ele>
        <time>2015-02-22T14:13:32Z</time>
      </trkpt>
      <trkpt lat="43.73412" lon="0.98797">
        <ele>154.6</ele>
        <time>2015-02-22T14:13:49Z</time>
      </trkpt>
      <trkpt lat="43.73399" lon="0.98783">
        <ele>154.51</ele>
        <time>2015-02-22T14:14:07Z</time>
      </trkpt>
      <trkpt lat="43.73387" lon="0.98775">
        <ele>154.45</ele>
        <time>2015-02-22T14:14:21Z</time>
      </trkpt>
      <trkpt lat="43.73376" lon="0.98762">
        <ele>154.51</ele>
        <time>2015-02-22T14:14:40Z</time>
      </trkpt>
      <trkpt lat="43.73366" lon="0.98747">
        <ele>154.77</ele>
        <time>2015-02-22T14:14:57Z</time>
      </trkpt>
      <trkpt lat="43.73365" lon="0.98744">
        <ele>154.83</ele>
        <time>2015-02-22T14:14:59Z</time>
      </trkpt>
      <trkpt lat="43.73364" lon="0.9874">
        <ele>154.75</ele>
        <time>2015-02-22T14:15:02Z</time>
      </trkpt>
      <trkpt lat="43.7336" lon="0.98721">
        <ele>154.74</ele>
        <time>2015-02-22T14:15:17Z</time>
      </trkpt>
      <trkpt lat="43.73359" lon="0.98701">
        <ele>155.56</ele>
        <time>2015-02-22T14:15:33Z</time>
      </trkpt>
      <trkpt lat="43.73353" lon="0.98676">
        <ele>155.88</ele>
        <time>2015-02-22T14:15:52Z</time>
      </trkpt>
      <trkpt lat="43.73344" lon="0.98658">
        <ele>157.62</ele>
        <time>2015-02-22T14:16:07Z</time>
      </trkpt>
      <trkpt lat="43.73335" lon="0.98638">
        <ele>159.68</ele>
        <time>2015-02-22T14:16:23Z</time>
      </trkpt>
      <trkpt lat="43.73333" lon="0.98635">
        <ele>159.86</ele>
        <time>2015-02-22T14:16:25Z</time>
      </trkpt>
      <trkpt lat="43.7333" lon="0.98618">
        <ele>160.37</ele>
        <time>2015-02-22T14:16:46Z</time>
      </trkpt>
      <trkpt lat="43.73322" lon="0.98599">
        <ele>161.36</ele>
        <time>2015-02-22T14:17:05Z</time>
      </trkpt>
      <trkpt lat="43.7332" lon="0.98596">
        <ele>161.46</ele>
        <time>2015-02-22T14:17:28Z</time>
      </trkpt>
      <trkpt lat="43.73306" lon="0.98579">
        <ele>162.34</ele>
        <time>2015-02-22T14:17:47Z</time>
      </trkpt>
      <trkpt lat="43.73301" lon="0.98573">
        <ele>162.83</ele>
        <time>2015-02-22T14:17:54Z</time>
      </trkpt>
      <trkpt lat="43.73286" lon="0.9856">
        <ele>164.46</ele>
        <time>2015-02-22T14:18:10Z</time>
      </trkpt>
      <trkpt lat="43.73272" lon="0.98544">
        <ele>167.14</ele>
        <time>2015-02-22T14:18:28Z</time>
      </trkpt>
      <trkpt lat="43.73256" lon="0.98528">
        <ele>169.9</ele>
        <time>2015-02-22T14:18:48Z</time>
      </trkpt>
      <trkpt lat="43.73239" lon="0.98513">
        <ele>170.06</ele>
        <time>2015-02-22T14:19:06Z</time>
      </trkpt>
      <trkpt lat="43.73225" lon="0.98501">
        <ele>170.76</ele>
        <time>2015-02-22T14:19:19Z</time>
      </trkpt>
      <trkpt lat="43.73216" lon="0.98493">
        <ele>171.23</ele>
        <time>2015-02-22T14:19:27Z</time>
      </trkpt>
      <trkpt lat="43.73204" lon="0.98481">
        <ele>171.4</ele>
        <time>2015-02-22T14:19:40Z</time>
      </trkpt>
      <trkpt lat="43.73187" lon="0.98465">
        <ele>172.29</ele>
        <time>2015-02-22T14:19:57Z</time>
      </trkpt>
      <trkpt lat="43.73176" lon="0.98453">
        <ele>172.98</ele>
        <time>2015-02-22T14:20:09Z</time>
      </trkpt>
      <trkpt lat="43.7317" lon="0.98443">
        <ele>173.97</ele>
        <time>2015-02-22T14:20:16Z</time>
      </trkpt>
      <trkpt lat="43.7318" lon="0.98422">
        <ele>173.48</ele>
        <time>2015-02-22T14:20:33Z</time>
      </trkpt>
      <trkpt lat="43.7319" lon="0.98405">
        <ele>172.63</ele>
        <time>2015-02-22T14:20:47Z</time>
      </trkpt>
      <trkpt lat="43.73192" lon="0.98399">
        <ele>171.81</ele>
        <time>2015-02-22T14:20:52Z</time>
      </trkpt>
      <trkpt lat="43.73198" lon="0.98384">
        <ele>171.58</ele>
        <time>2015-02-22T14:21:06Z</time>
      </trkpt>
      <trkpt lat="43.73204" lon="0.98385">
        <ele>171.97</ele>
        <time>2015-02-22T14:21:37Z</time>
      </trkpt>
      <trkpt lat="43.73208" lon="0.98378">
        <ele>172.52</ele>
        <time>2015-02-22T14:21:58Z</time>
      </trkpt>
      <trkpt lat="43.73204" lon="0.98373">
        <ele>173.51</ele>
        <time>2015-02-22T14:22:19Z</time>
      </trkpt>
      <trkpt lat="43.73202" lon="0.98371">
        <ele>173.73</ele>
        <time>2015-02-22T14:22:45Z</time>
      </trkpt>
      <trkpt lat="43.73199" lon="0.98374">
        <ele>173.8</ele>
        <time>2015-02-22T14:23:05Z</time>
      </trkpt>
      <trkpt lat="43.73187" lon="0.98366">
        <ele>173.96</ele>
        <time>2015-02-22T14:23:21Z</time>
      </trkpt>
      <trkpt lat="43.73181" lon="0.98361">
        <ele>174.48</ele>
        <time>2015-02-22T14:23:30Z</time>
      </trkpt>
      <trkpt lat="43.73167" lon="0.98349">
        <ele>176.05</ele>
        <time>2015-02-22T14:23:49Z</time>
      </trkpt>
      <trkpt lat="43.73164" lon="0.98346">
        <ele>176.32</ele>
        <time>2015-02-22T14:23:52Z</time>
      </trkpt>
      <trkpt lat="43.73151" lon="0.98334">
        <ele>177.79</ele>
        <time>2015-02-22T14:24:08Z</time>
      </trkpt>
      <trkpt lat="43.73142" lon="0.98327">
        <ele>178.79</ele>
        <time>2015-02-22T14:24:19Z</time>
      </trkpt>
      <trkpt lat="43.73132" lon="0.98315">
        <ele>180.53</ele>
        <time>2015-02-22T14:24:34Z</time>
      </trkpt>
      <trkpt lat="43.73119" lon="0.98303">
        <ele>181.7</ele>
        <time>2015-02-22T14:24:50Z</time>
      </trkpt>
      <trkpt lat="43.73112" lon="0.98292">
        <ele>182.49</ele>
        <time>2015-02-22T14:25:03Z</time>
      </trkpt>
      <trkpt lat="43.73114" lon="0.98269">
        <ele>183.83</ele>
        <time>2015-02-22T14:25:19Z</time>
      </trkpt>
      <trkpt lat="43.7312" lon="0.9825">
        <ele>184.46</ele>
        <time>2015-02-22T14:25:35Z</time>
      </trkpt>
      <trkpt lat="43.73116" lon="0.98242">
        <ele>184.97</ele>
        <time>2015-02-22T14:25:52Z</time>
      </trkpt>
      <trkpt lat="43.73108" lon="0.98235">
        <ele>186.11</ele>
        <time>2015-02-22T14:26:09Z</time>
      </trkpt>
      <trkpt lat="43.73105" lon="0.9823">
        <ele>186.59</ele>
        <time>2015-02-22T14:26:31Z</time>
      </trkpt>
      <trkpt lat="43.73094" lon="0.98223">
        <ele>187.76</ele>
        <time>2015-02-22T14:26:46Z</time>
      </trkpt>
      <trkpt lat="43.73087" lon="0.98217">
        <ele>188.87</ele>
        <time>2015-02-22T14:27:02Z</time>
      </trkpt>
      <trkpt lat="43.73082" lon="0.9821">
        <ele>190.08</ele>
        <time>2015-02-22T14:27:18Z</time>
      </trkpt>
      <trkpt lat="43.73071" lon="0.98202">
        <ele>191.96</ele>
        <time>2015-02-22T14:27:35Z</time>
      </trkpt>
      <trkpt lat="43.7306" lon="0.98197">
        <ele>193.13</ele>
        <time>2015-02-22T14:27:48Z</time>
      </trkpt>
      <trkpt lat="43.73056" lon="0.98192">
        <ele>193.82</ele>
        <time>2015-02-22T14:27:53Z</time>
      </trkpt>
      <trkpt lat="43.73053" lon="0.98187">
        <ele>194.72</ele>
        <time>2015-02-22T14:27:58Z</time>
      </trkpt>
      <trkpt lat="43.73041" lon="0.98176">
        <ele>196.55</ele>
        <time>2015-02-22T14:28:12Z</time>
      </trkpt>
      <trkpt lat="43.73031" lon="0.98165">
        <ele>198.4</ele>
        <time>2015-02-22T14:28:26Z</time>
      </trkpt>
      <trkpt lat="43.73023" lon="0.98156">
        <ele>199.56</ele>
        <time>2015-02-22T14:28:42Z</time>
      </trkpt>
      <trkpt lat="43.73011" lon="0.98143">
        <ele>201.48</ele>
        <time>2015-02-22T14:28:58Z</time>
      </trkpt>
      <trkpt lat="43.73001" lon="0.98133">
        <ele>203.7</ele>
        <time>2015-02-22T14:29:12Z</time>
      </trkpt>
      <trkpt lat="43.72988" lon="0.98122">
        <ele>205.52</ele>
        <time>2015-02-22T14:29:27Z</time>
      </trkpt>
      <trkpt lat="43.72981" lon="0.98118">
        <ele>206.3</ele>
        <time>2015-02-22T14:29:43Z</time>
      </trkpt>
      <trkpt lat="43.72978" lon="0.98115">
        <ele>206.18</ele>
        <time>2015-02-22T14:29:48Z</time>
      </trkpt>
      <trkpt lat="43.72976" lon="0.98112">
        <ele>206.18</ele>
        <time>2015-02-22T14:29:51Z</time>
      </trkpt>
      <trkpt lat="43.7296" lon="0.98101">
        <ele>205.44</ele>
        <time>2015-02-22T14:30:08Z</time>
      </trkpt>
      <trkpt lat="43.72944" lon="0.98092">
        <ele>204.07</ele>
        <time>2015-02-22T14:30:23Z</time>
      </trkpt>
      <trkpt lat="43.72923" lon="0.98082">
        <ele>202.42</ele>
        <time>2015-02-22T14:30:41Z</time>
      </trkpt>
      <trkpt lat="43.72899" lon="0.98079">
        <ele>201.17</ele>
        <time>2015-02-22T14:31:00Z</time>
      </trkpt>
      <trkpt lat="43.72881" lon="0.9808">
        <ele>200.09</ele>
        <time>2015-02-22T14:31:17Z</time>
      </trkpt>
      <trkpt lat="43.72869" lon="0.9808">
        <ele>199.21</ele>
        <time>2015-02-22T14:31:34Z</time>
      </trkpt>
      <trkpt lat="43.72858" lon="0.9808">
        <ele>198.81</ele>
        <time>2015-02-22T14:31:47Z</time>
      </trkpt>
      <trkpt lat="43.72852" lon="0.98081">
        <ele>198.6</ele>
        <time>2015-02-22T14:31:54Z</time>
      </trkpt>
      <trkpt lat="43.72831" lon="0.98086">
        <ele>197.95</ele>
        <time>2015-02-22T14:32:13Z</time>
      </trkpt>
      <trkpt lat="43.72813" lon="0.98088">
        <ele>197.26</ele>
        <time>2015-02-22T14:32:29Z</time>
      </trkpt>
      <trkpt lat="43.72786" lon="0.98092">
        <ele>196.36</ele>
        <time>2015-02-22T14:32:52Z</time>
      </trkpt>
      <trkpt lat="43.72766" lon="0.98096">
        <ele>195.58</ele>
        <time>2015-02-22T14:33:11Z</time>
      </trkpt>
      <trkpt lat="43.72749" lon="0.981">
        <ele>195.17</ele>
        <time>2015-02-22T14:33:26Z</time>
      </trkpt>
      <trkpt lat="43.72728" lon="0.98102">
        <ele>194.75</ele>
        <time>2015-02-22T14:33:42Z</time>
      </trkpt>
      <trkpt lat="43.72725" lon="0.98102">
        <ele>194.66</ele>
        <time>2015-02-22T14:33:44Z</time>
      </trkpt>
      <trkpt lat="43.72707" lon="0.98102">
        <ele>193.76</ele>
        <time>2015-02-22T14:34:00Z</time>
      </trkpt>
      <trkpt lat="43.72686" lon="0.98103">
        <ele>192.73</ele>
        <time>2015-02-22T14:34:18Z</time>
      </trkpt>
      <trkpt lat="43.7267" lon="0.98108">
        <ele>192.52</ele>
        <time>2015-02-22T14:34:31Z</time>
      </trkpt>
      <trkpt lat="43.72665" lon="0.98107">
        <ele>192.52</ele>
        <time>2015-02-22T14:34:35Z</time>
      </trkpt>
      <trkpt lat="43.72663" lon="0.98107">
        <ele>192.53</ele>
        <time>2015-02-22T14:34:37Z</time>
      </trkpt>
      <trkpt lat="43.72655" lon="0.98108">
        <ele>192.27</ele>
        <time>2015-02-22T14:34:45Z</time>
      </trkpt>
      <trkpt lat="43.72636" lon="0.98097">
        <ele>191.97</ele>
        <time>2015-02-22T14:35:01Z</time>
      </trkpt>
      <trkpt lat="43.72618" lon="0.98088">
        <ele>192.43</ele>
        <time>2015-02-22T14:35:19Z</time>
      </trkpt>
      <trkpt lat="43.7261" lon="0.98082">
        <ele>192.38</ele>
        <time>2015-02-22T14:35:35Z</time>
      </trkpt>
      <trkpt lat="43.72606" lon="0.98078">
        <ele>192.58</ele>
        <time>2015-02-22T14:36:04Z</time>
      </trkpt>
      <trkpt lat="43.72603" lon="0.98074">
        <ele>192.47</ele>
        <time>2015-02-22T14:36:11Z</time>
      </trkpt>
      <trkpt lat="43.72593" lon="0.9807">
        <ele>192.79</ele>
        <time>2015-02-22T14:36:21Z</time>
      </trkpt>
      <trkpt lat="43.72588" lon="0.98072">
        <ele>192.81</ele>
        <time>2015-02-22T14:36:25Z</time>
      </trkpt>
      <trkpt lat="43.72573" lon="0.98065">
        <ele>192.86</ele>
        <time>2015-02-22T14:36:41Z</time>
      </trkpt>
      <trkpt lat="43.72558" lon="0.98058">
        <ele>193.25</ele>
        <time>2015-02-22T14:36:55Z</time>
      </trkpt>
      <trkpt lat="43.72542" lon="0.98049">
        <ele>193.41</ele>
        <time>2015-02-22T14:37:10Z</time>
      </trkpt>
      <trkpt lat="43.72532" lon="0.98042">
        <ele>193.44</ele>
        <time>2015-02-22T14:37:21Z</time>
      </trkpt>
      <trkpt lat="43.72528" lon="0.98035">
        <ele>193.21</ele>
        <time>2015-02-22T14:37:31Z</time>
      </trkpt>
      <trkpt lat="43.72508" lon="0.98022">
        <ele>194.18</ele>
        <time>2015-02-22T14:37:49Z</time>
      </trkpt>
      <trkpt lat="43.725" lon="0.98015">
        <ele>194.33</ele>
        <time>2015-02-22T14:38:02Z</time>
      </trkpt>
      <trkpt lat="43.72495" lon="0.98014">
        <ele>194.19</ele>
        <time>2015-02-22T14:38:07Z</time>
      </trkpt>
      <trkpt lat="43.72491" lon="0.98012">
        <ele>194.33</ele>
        <time>2015-02-22T14:38:11Z</time>
      </trkpt>
      <trkpt lat="43.72471" lon="0.97997">
        <ele>194.65</ele>
        <time>2015-02-22T14:38:30Z</time>
      </trkpt>
      <trkpt lat="43.72453" lon="0.97985">
        <ele>194.52</ele>
        <time>2015-02-22T14:38:47Z</time>
      </trkpt>
      <trkpt lat="43.72432" lon="0.97972">
        <ele>194.47</ele>
        <time>2015-02-22T14:39:06Z</time>
      </trkpt>
      <trkpt lat="43.72409" lon="0.97956">
        <ele>193.76</ele>
        <time>2015-02-22T14:39:26Z</time>
      </trkpt>
      <trkpt lat="43.7239" lon="0.97941">
        <ele>192.82</ele>
        <time>2015-02-22T14:39:44Z</time>
      </trkpt>
      <trkpt lat="43.72375" lon="0.97929">
        <ele>193.05</ele>
        <time>2015-02-22T14:39:57Z</time>
      </trkpt>
      <trkpt lat="43.72357" lon="0.97918">
        <ele>192.73</ele>
        <time>2015-02-22T14:40:15Z</time>
      </trkpt>
      <trkpt lat="43.72339" lon="0.97907">
        <ele>192.45</ele>
        <time>2015-02-22T14:40:32Z</time>
      </trkpt>
      <trkpt lat="43.72322" lon="0.97897">
        <ele>192.67</ele>
        <time>2015-02-22T14:40:48Z</time>
      </trkpt>
      <trkpt lat="43.7231" lon="0.97887">
        <ele>192.64</ele>
        <time>2015-02-22T14:40:59Z</time>
      </trkpt>
      <trkpt lat="43.72288" lon="0.97872">
        <ele>192.93</ele>
        <time>2015-02-22T14:41:18Z</time>
      </trkpt>
      <trkpt lat="43.7227" lon="0.97862">
        <ele>193.45</ele>
        <time>2015-02-22T14:41:35Z</time>
      </trkpt>
      <trkpt lat="43.72264" lon="0.97855">
        <ele>194</ele>
        <time>2015-02-22T14:41:42Z</time>
      </trkpt>
      <trkpt lat="43.72256" lon="0.9785">
        <ele>194.14</ele>
        <time>2015-02-22T14:42:02Z</time>
      </trkpt>
      <trkpt lat="43.72252" lon="0.97847">
        <ele>194.14</ele>
        <time>2015-02-22T14:42:25Z</time>
      </trkpt>
      <trkpt lat="43.7225" lon="0.97846">
        <ele>194.05</ele>
        <time>2015-02-22T14:42:27Z</time>
      </trkpt>
      <trkpt lat="43.72243" lon="0.97841">
        <ele>194.32</ele>
        <time>2015-02-22T14:42:37Z</time>
      </trkpt>
      <trkpt lat="43.72238" lon="0.97838">
        <ele>194.68</ele>
        <time>2015-02-22T14:42:43Z</time>
      </trkpt>
      <trkpt lat="43.72235" lon="0.97838">
        <ele>194.98</ele>
        <time>2015-02-22T14:42:46Z</time>
      </trkpt>
      <trkpt lat="43.72226" lon="0.97831">
        <ele>195.75</ele>
        <time>2015-02-22T14:42:56Z</time>
      </trkpt>
      <trkpt lat="43.72212" lon="0.9782">
        <ele>196.51</ele>
        <time>2015-02-22T14:43:12Z</time>
      </trkpt>
      <trkpt lat="43.72202" lon="0.9781">
        <ele>196.85</ele>
        <time>2015-02-22T14:43:23Z</time>
      </trkpt>
      <trkpt lat="43.72193" lon="0.97789">
        <ele>197.78</ele>
        <time>2015-02-22T14:43:39Z</time>
      </trkpt>
      <trkpt lat="43.72193" lon="0.97788">
        <ele>197.8</ele>
        <time>2015-02-22T14:43:43Z</time>
      </trkpt>
    </trkseg>
  </trk>
</gpx>